LNI119 WIMM-OEJN
Flight info
| Callsign | LNI119 |
|---|---|
| Flight time | 8h 35m |
| Altitude | 34000 |
| Route | MEMAK N563 SADRI/N0477F360 N563 MEPAT/N0472F380 N563 REXOD L883 SITOL/N0419F280 L883 ALNUG Y121 DATUV/N0473F380 Y121 VEMEM |
| Aircraft | A333/H-SDE3GHIJ2J3J5M1RVWXY/LB2D1 |
Departure
| Time | 2026-04-20 05:00 |
|---|---|
| Airport | Kualanamu International Airport (WIMM) |
Arrival
| Time | 2026-04-20 13:36 |
|---|---|
| Airport | King Abdulaziz International Airport (OEJN) |
| Time | Latitude | Longitude | Altitude | Speed | Heading |
|---|---|---|---|---|---|
| 2026-04-20 04:07 | 3.63654 | 98.88076 | 44 ft | 0 kts | 225° |
| 2026-04-20 04:28 | 3.63659 | 98.88081 | 43 ft | 2 kts | 225° |
| 2026-04-20 04:28 | 3.63670 | 98.88092 | 41 ft | 2 kts | 225° |
| 2026-04-20 04:29 | 3.63682 | 98.88104 | 42 ft | 2 kts | 225° |
| 2026-04-20 04:29 | 3.63693 | 98.88115 | 41 ft | 2 kts | 225° |
| 2026-04-20 04:29 | 3.63704 | 98.88127 | 40 ft | 2 kts | 225° |
| 2026-04-20 04:29 | 3.63706 | 98.88128 | 39 ft | 0 kts | 232° |
| 2026-04-20 04:30 | 3.63708 | 98.88128 | 39 ft | 0 kts | 241° |
| 2026-04-20 04:30 | 3.63709 | 98.88129 | 41 ft | 0 kts | 250° |
| 2026-04-20 04:30 | 3.63710 | 98.88130 | 41 ft | 0 kts | 262° |
| 2026-04-20 04:30 | 3.63712 | 98.88132 | 41 ft | 0 kts | 282° |
| 2026-04-20 04:31 | 3.63712 | 98.88135 | 41 ft | 0 kts | 302° |
| 2026-04-20 04:31 | 3.63712 | 98.88137 | 41 ft | 0 kts | 314° |
| 2026-04-20 04:35 | 3.63712 | 98.88136 | 41 ft | 0 kts | 314° |
| 2026-04-20 04:35 | 3.63713 | 98.88136 | 41 ft | 0 kts | 314° |
| 2026-04-20 04:35 | 3.63714 | 98.88135 | 41 ft | 0 kts | 314° |
| 2026-04-20 04:40 | 3.63718 | 98.88131 | 44 ft | 2 kts | 314° |
| 2026-04-20 04:41 | 3.63731 | 98.88117 | 44 ft | 3 kts | 311° |
| 2026-04-20 04:41 | 3.63750 | 98.88096 | 44 ft | 5 kts | 312° |
| 2026-04-20 04:41 | 3.63777 | 98.88069 | 44 ft | 6 kts | 316° |
| 2026-04-20 04:41 | 3.63810 | 98.88035 | 44 ft | 7 kts | 315° |
| 2026-04-20 04:42 | 3.63850 | 98.87996 | 44 ft | 9 kts | 315° |
| 2026-04-20 04:42 | 3.63891 | 98.87962 | 44 ft | 6 kts | 338° |
| 2026-04-20 04:42 | 3.63915 | 98.87963 | 44 ft | 5 kts | 15° |
| 2026-04-20 04:43 | 3.63924 | 98.87966 | 44 ft | 5 kts | 19° |
| 2026-04-20 04:43 | 3.63952 | 98.87992 | 44 ft | 4 kts | 44° |
| 2026-04-20 04:43 | 3.63953 | 98.87992 | 44 ft | 0 kts | 44° |
| 2026-04-20 04:45 | 3.63960 | 98.87999 | 44 ft | 2 kts | 44° |
| 2026-04-20 04:45 | 3.63974 | 98.88013 | 44 ft | 4 kts | 44° |
| 2026-04-20 04:45 | 3.63996 | 98.88034 | 44 ft | 5 kts | 44° |
| 2026-04-20 04:46 | 3.64022 | 98.88061 | 44 ft | 6 kts | 45° |
| 2026-04-20 04:46 | 3.64054 | 98.88093 | 44 ft | 7 kts | 45° |
| 2026-04-20 04:46 | 3.64080 | 98.88118 | 44 ft | 0 kts | 45° |
| 2026-04-20 04:47 | 3.64081 | 98.88119 | 44 ft | 1 kts | 45° |
| 2026-04-20 04:47 | 3.64089 | 98.88127 | 44 ft | 2 kts | 45° |
| 2026-04-20 04:47 | 3.64105 | 98.88143 | 44 ft | 4 kts | 45° |
| 2026-04-20 04:47 | 3.64127 | 98.88165 | 44 ft | 5 kts | 45° |
| 2026-04-20 04:48 | 3.64155 | 98.88193 | 44 ft | 6 kts | 45° |
| 2026-04-20 04:48 | 3.64189 | 98.88203 | 44 ft | 5 kts | 352° |
| 2026-04-20 04:48 | 3.64221 | 98.88186 | 44 ft | 6 kts | 323° |
| 2026-04-20 04:48 | 3.64253 | 98.88154 | 44 ft | 7 kts | 314° |
| 2026-04-20 04:49 | 3.64292 | 98.88116 | 44 ft | 8 kts | 315° |
| 2026-04-20 04:49 | 3.64336 | 98.88071 | 43 ft | 10 kts | 315° |
| 2026-04-20 04:49 | 3.64387 | 98.88022 | 43 ft | 11 kts | 315° |
| 2026-04-20 04:49 | 3.64422 | 98.87979 | 43 ft | 7 kts | 294° |
| 2026-04-20 04:50 | 3.64409 | 98.87935 | 42 ft | 8 kts | 234° |
| 2026-04-20 04:50 | 3.64368 | 98.87891 | 42 ft | 9 kts | 225° |
| 2026-04-20 04:50 | 3.64317 | 98.87841 | 42 ft | 11 kts | 225° |
| 2026-04-20 04:50 | 3.64258 | 98.87782 | 42 ft | 13 kts | 225° |
| 2026-04-20 04:51 | 3.64191 | 98.87716 | 42 ft | 14 kts | 225° |
| 2026-04-20 04:51 | 3.64118 | 98.87643 | 41 ft | 15 kts | 225° |
| 2026-04-20 04:51 | 3.64040 | 98.87565 | 42 ft | 16 kts | 225° |
| 2026-04-20 04:51 | 3.63957 | 98.87482 | 42 ft | 17 kts | 225° |
| 2026-04-20 04:52 | 3.63871 | 98.87397 | 42 ft | 18 kts | 225° |
| 2026-04-20 04:52 | 3.63782 | 98.87308 | 43 ft | 18 kts | 224° |
| 2026-04-20 04:52 | 3.63693 | 98.87220 | 43 ft | 18 kts | 225° |
| 2026-04-20 04:52 | 3.63608 | 98.87135 | 43 ft | 17 kts | 224° |
| 2026-04-20 04:53 | 3.63525 | 98.87053 | 43 ft | 17 kts | 225° |
| 2026-04-20 04:53 | 3.63444 | 98.86972 | 42 ft | 16 kts | 225° |
| 2026-04-20 04:53 | 3.63364 | 98.86892 | 42 ft | 16 kts | 225° |
| 2026-04-20 04:53 | 3.63287 | 98.86815 | 42 ft | 16 kts | 225° |
| 2026-04-20 04:54 | 3.63211 | 98.86740 | 42 ft | 15 kts | 225° |
| 2026-04-20 04:54 | 3.63136 | 98.86665 | 42 ft | 15 kts | 225° |
| 2026-04-20 04:54 | 3.63064 | 98.86594 | 42 ft | 14 kts | 225° |
| 2026-04-20 04:54 | 3.62994 | 98.86525 | 41 ft | 14 kts | 225° |
| 2026-04-20 04:55 | 3.62927 | 98.86458 | 43 ft | 13 kts | 225° |
| 2026-04-20 04:55 | 3.62862 | 98.86393 | 43 ft | 13 kts | 225° |
| 2026-04-20 04:55 | 3.62800 | 98.86331 | 43 ft | 12 kts | 225° |
| 2026-04-20 04:55 | 3.62729 | 98.86261 | 43 ft | 17 kts | 225° |
| 2026-04-20 04:56 | 3.62638 | 98.86170 | 43 ft | 19 kts | 225° |
| 2026-04-20 04:56 | 3.62550 | 98.86083 | 43 ft | 14 kts | 225° |
| 2026-04-20 04:56 | 3.62506 | 98.86016 | 42 ft | 10 kts | 255° |
| 2026-04-20 04:56 | 3.62519 | 98.85950 | 41 ft | 9 kts | 299° |
| 2026-04-20 04:57 | 3.62568 | 98.85906 | 39 ft | 9 kts | 335° |
| 2026-04-20 04:57 | 3.62623 | 98.85906 | 40 ft | 7 kts | 18° |
| 2026-04-20 04:57 | 3.62658 | 98.85930 | 41 ft | 4 kts | 47° |
| 2026-04-20 04:57 | 3.62676 | 98.85954 | 41 ft | 4 kts | 48° |
| 2026-04-20 04:58 | 3.62679 | 98.85958 | 40 ft | 0 kts | 44° |
| 2026-04-20 04:59 | 3.62693 | 98.85971 | 41 ft | 9 kts | 45° |
| 2026-04-20 04:59 | 3.62835 | 98.86114 | 41 ft | 54 kts | 45° |
| 2026-04-20 05:00 | 3.63229 | 98.86505 | 39 ft | 105 kts | 45° |
| 2026-04-20 05:00 | 3.63863 | 98.87135 | 41 ft | 151 kts | 45° |
| 2026-04-20 05:00 | 3.64706 | 98.87981 | 103 ft | 187 kts | 44° |
| 2026-04-20 05:00 | 3.65568 | 98.88862 | 898 ft | 174 kts | 43° |
| 2026-04-20 05:01 | 3.66775 | 98.89431 | 887 ft | 217 kts | 0° |
| 2026-04-20 05:01 | 3.67723 | 98.89182 | 1390 ft | 212 kts | 329° |
| 2026-04-20 05:01 | 3.68690 | 98.88162 | 2379 ft | 193 kts | 304° |
| 2026-04-20 05:01 | 3.69394 | 98.87066 | 3021 ft | 184 kts | 303° |
| 2026-04-20 05:02 | 3.70376 | 98.85599 | 3341 ft | 201 kts | 306° |
| 2026-04-20 05:02 | 3.71223 | 98.84450 | 3668 ft | 207 kts | 308° |
| 2026-04-20 05:02 | 3.71821 | 98.83675 | 3964 ft | 208 kts | 309° |
| 2026-04-20 05:02 | 3.72723 | 98.82534 | 4387 ft | 209 kts | 309° |
| 2026-04-20 05:03 | 3.73627 | 98.81409 | 4813 ft | 210 kts | 310° |
| 2026-04-20 05:03 | 3.74551 | 98.80268 | 5234 ft | 212 kts | 310° |
| 2026-04-20 05:03 | 3.75486 | 98.79119 | 5648 ft | 213 kts | 310° |
| 2026-04-20 05:03 | 3.76429 | 98.77964 | 5951 ft | 218 kts | 310° |
| 2026-04-20 05:04 | 3.77425 | 98.76746 | 6078 ft | 235 kts | 310° |
| 2026-04-20 05:04 | 3.78498 | 98.75434 | 6168 ft | 252 kts | 310° |
| 2026-04-20 05:04 | 3.79645 | 98.74033 | 6319 ft | 266 kts | 310° |
| 2026-04-20 05:04 | 3.80842 | 98.72570 | 6540 ft | 275 kts | 310° |
| 2026-04-20 05:05 | 3.81984 | 98.71017 | 6895 ft | 280 kts | 297° |
| 2026-04-20 05:05 | 3.82758 | 98.69217 | 7312 ft | 281 kts | 292° |
| 2026-04-20 05:05 | 3.83457 | 98.67409 | 7728 ft | 283 kts | 291° |
| 2026-04-20 05:05 | 3.84157 | 98.65562 | 8172 ft | 285 kts | 291° |
| 2026-04-20 05:06 | 3.84865 | 98.63706 | 8648 ft | 286 kts | 291° |
| 2026-04-20 05:06 | 3.85583 | 98.61833 | 9092 ft | 289 kts | 291° |
| 2026-04-20 05:06 | 3.86306 | 98.59954 | 9540 ft | 290 kts | 291° |
| 2026-04-20 05:06 | 3.87038 | 98.58058 | 9955 ft | 293 kts | 291° |
| 2026-04-20 05:07 | 3.87783 | 98.56132 | 10207 ft | 301 kts | 291° |
| 2026-04-20 05:07 | 3.88555 | 98.54139 | 10370 ft | 313 kts | 291° |
| 2026-04-20 05:07 | 3.89360 | 98.52058 | 10509 ft | 324 kts | 291° |
| 2026-04-20 05:07 | 3.90191 | 98.49913 | 10664 ft | 336 kts | 291° |
| 2026-04-20 05:08 | 3.91048 | 98.47699 | 10792 ft | 346 kts | 291° |
| 2026-04-20 05:08 | 3.91931 | 98.45417 | 10931 ft | 356 kts | 291° |
| 2026-04-20 05:08 | 3.92824 | 98.43108 | 11092 ft | 365 kts | 291° |
| 2026-04-20 05:08 | 3.93748 | 98.40721 | 11372 ft | 368 kts | 291° |
| 2026-04-20 05:09 | 3.94678 | 98.38320 | 11702 ft | 371 kts | 291° |
| 2026-04-20 05:09 | 3.95613 | 98.35901 | 12031 ft | 374 kts | 291° |
| 2026-04-20 05:09 | 3.96555 | 98.33469 | 12429 ft | 375 kts | 291° |
| 2026-04-20 05:09 | 3.97500 | 98.31027 | 12748 ft | 378 kts | 291° |
| 2026-04-20 05:10 | 3.98453 | 98.28563 | 13098 ft | 380 kts | 291° |
| 2026-04-20 05:10 | 3.99412 | 98.26086 | 13424 ft | 382 kts | 291° |
| 2026-04-20 05:10 | 4.00376 | 98.23593 | 13752 ft | 385 kts | 291° |
| 2026-04-20 05:10 | 4.01345 | 98.21088 | 14064 ft | 387 kts | 291° |
| 2026-04-20 05:11 | 4.02308 | 98.18597 | 14356 ft | 389 kts | 291° |
| 2026-04-20 05:11 | 4.03289 | 98.16063 | 14635 ft | 391 kts | 291° |
| 2026-04-20 05:11 | 4.04272 | 98.13520 | 14933 ft | 393 kts | 291° |
| 2026-04-20 05:11 | 4.05260 | 98.10965 | 15224 ft | 394 kts | 291° |
| 2026-04-20 05:12 | 4.06254 | 98.08393 | 15527 ft | 396 kts | 291° |
| 2026-04-20 05:12 | 4.07251 | 98.05815 | 15799 ft | 398 kts | 291° |
| 2026-04-20 05:12 | 4.08254 | 98.03221 | 16088 ft | 400 kts | 291° |
| 2026-04-20 05:12 | 4.09261 | 98.00615 | 16363 ft | 402 kts | 291° |
| 2026-04-20 05:13 | 4.10271 | 97.98003 | 16625 ft | 403 kts | 291° |
| 2026-04-20 05:13 | 4.11278 | 97.95405 | 16892 ft | 405 kts | 291° |
| 2026-04-20 05:13 | 4.12304 | 97.92762 | 17159 ft | 407 kts | 291° |
| 2026-04-20 05:13 | 4.13331 | 97.90116 | 17430 ft | 408 kts | 291° |
| 2026-04-20 05:14 | 4.14363 | 97.87456 | 17713 ft | 410 kts | 291° |
| 2026-04-20 05:14 | 4.15399 | 97.84786 | 17969 ft | 412 kts | 291° |
| 2026-04-20 05:14 | 4.16438 | 97.82109 | 18211 ft | 413 kts | 291° |
| 2026-04-20 05:14 | 4.17482 | 97.79419 | 18428 ft | 415 kts | 291° |
| 2026-04-20 05:15 | 4.18529 | 97.76721 | 18637 ft | 416 kts | 291° |
| 2026-04-20 05:15 | 4.19578 | 97.74014 | 18882 ft | 417 kts | 291° |
| 2026-04-20 05:15 | 4.20615 | 97.71337 | 19108 ft | 418 kts | 291° |
| 2026-04-20 05:15 | 4.21669 | 97.68616 | 19292 ft | 419 kts | 291° |
| 2026-04-20 05:16 | 4.22728 | 97.65880 | 19507 ft | 420 kts | 291° |
| 2026-04-20 05:16 | 4.23787 | 97.63147 | 19716 ft | 421 kts | 291° |
| 2026-04-20 05:16 | 4.24847 | 97.60411 | 19884 ft | 423 kts | 291° |
| 2026-04-20 05:16 | 4.25911 | 97.57663 | 20095 ft | 424 kts | 291° |
| 2026-04-20 05:17 | 4.26980 | 97.54903 | 20279 ft | 425 kts | 291° |
| 2026-04-20 05:17 | 4.28048 | 97.52143 | 20490 ft | 425 kts | 291° |
| 2026-04-20 05:17 | 4.29120 | 97.49373 | 20668 ft | 427 kts | 291° |
| 2026-04-20 05:17 | 4.30192 | 97.46602 | 20863 ft | 428 kts | 291° |
| 2026-04-20 05:18 | 4.31270 | 97.43818 | 21065 ft | 428 kts | 291° |
| 2026-04-20 05:18 | 4.32349 | 97.41029 | 21223 ft | 430 kts | 291° |
| 2026-04-20 05:18 | 4.33433 | 97.38229 | 21398 ft | 431 kts | 291° |
| 2026-04-20 05:18 | 4.34518 | 97.35424 | 21579 ft | 432 kts | 291° |
| 2026-04-20 05:19 | 4.35605 | 97.32612 | 21741 ft | 434 kts | 291° |
| 2026-04-20 05:19 | 4.36683 | 97.29826 | 21899 ft | 435 kts | 291° |
| 2026-04-20 05:19 | 4.37775 | 97.27001 | 22124 ft | 434 kts | 291° |
| 2026-04-20 05:19 | 4.38869 | 97.24173 | 22270 ft | 436 kts | 291° |
| 2026-04-20 05:20 | 4.39967 | 97.21335 | 22447 ft | 437 kts | 291° |
| 2026-04-20 05:20 | 4.41219 | 97.18563 | 22619 ft | 437 kts | 298° |
| 2026-04-20 05:20 | 4.42771 | 97.15936 | 22775 ft | 438 kts | 302° |
| 2026-04-20 05:20 | 4.44406 | 97.13343 | 22908 ft | 440 kts | 302° |
| 2026-04-20 05:21 | 4.46052 | 97.10757 | 23114 ft | 440 kts | 302° |
| 2026-04-20 05:21 | 4.47698 | 97.08167 | 23252 ft | 442 kts | 302° |
| 2026-04-20 05:21 | 4.49350 | 97.05561 | 23350 ft | 444 kts | 302° |
| 2026-04-20 05:21 | 4.50981 | 97.02977 | 23514 ft | 444 kts | 301° |
| 2026-04-20 05:22 | 4.52455 | 97.00255 | 23674 ft | 444 kts | 295° |
| 2026-04-20 05:22 | 4.53695 | 96.97420 | 23807 ft | 445 kts | 292° |
| 2026-04-20 05:22 | 4.54836 | 96.94526 | 23893 ft | 447 kts | 291° |
| 2026-04-20 05:22 | 4.55927 | 96.91604 | 23991 ft | 448 kts | 290° |
| 2026-04-20 05:23 | 4.57004 | 96.88671 | 24177 ft | 448 kts | 290° |
| 2026-04-20 05:23 | 4.58084 | 96.85735 | 24279 ft | 449 kts | 290° |
| 2026-04-20 05:23 | 4.59176 | 96.82796 | 24416 ft | 450 kts | 290° |
| 2026-04-20 05:23 | 4.60277 | 96.79860 | 24545 ft | 450 kts | 290° |
| 2026-04-20 05:24 | 4.61388 | 96.76917 | 24646 ft | 452 kts | 290° |
| 2026-04-20 05:24 | 4.62508 | 96.73964 | 24765 ft | 453 kts | 291° |
| 2026-04-20 05:24 | 4.63630 | 96.71010 | 24889 ft | 454 kts | 291° |
| 2026-04-20 05:24 | 4.64755 | 96.68049 | 24994 ft | 455 kts | 291° |
| 2026-04-20 05:25 | 4.65886 | 96.65075 | 25127 ft | 456 kts | 291° |
| 2026-04-20 05:25 | 4.67000 | 96.62142 | 25243 ft | 456 kts | 291° |
| 2026-04-20 05:25 | 4.68134 | 96.59155 | 25378 ft | 457 kts | 291° |
| 2026-04-20 05:25 | 4.69267 | 96.56168 | 25507 ft | 458 kts | 291° |
| 2026-04-20 05:26 | 4.70399 | 96.53182 | 25626 ft | 459 kts | 291° |
| 2026-04-20 05:26 | 4.71538 | 96.50181 | 25712 ft | 460 kts | 291° |
| 2026-04-20 05:26 | 4.72677 | 96.47176 | 25845 ft | 461 kts | 291° |
| 2026-04-20 05:26 | 4.73805 | 96.44202 | 25927 ft | 463 kts | 291° |
| 2026-04-20 05:27 | 4.74949 | 96.41183 | 26028 ft | 464 kts | 291° |
| 2026-04-20 05:27 | 4.76097 | 96.38154 | 26149 ft | 464 kts | 291° |
| 2026-04-20 05:27 | 4.77248 | 96.35117 | 26271 ft | 465 kts | 291° |
| 2026-04-20 05:27 | 4.78401 | 96.32074 | 26395 ft | 466 kts | 291° |
| 2026-04-20 05:28 | 4.79554 | 96.29031 | 26508 ft | 467 kts | 291° |
| 2026-04-20 05:28 | 4.80709 | 96.25982 | 26630 ft | 468 kts | 291° |
| 2026-04-20 05:28 | 4.81866 | 96.22927 | 26723 ft | 469 kts | 291° |
| 2026-04-20 05:28 | 4.83027 | 96.19863 | 26844 ft | 470 kts | 291° |
| 2026-04-20 05:29 | 4.84188 | 96.16796 | 26966 ft | 471 kts | 291° |
| 2026-04-20 05:29 | 4.85337 | 96.13761 | 27072 ft | 472 kts | 291° |
| 2026-04-20 05:29 | 4.86501 | 96.10685 | 27173 ft | 472 kts | 291° |
| 2026-04-20 05:29 | 4.87670 | 96.07598 | 27284 ft | 474 kts | 291° |
| 2026-04-20 05:30 | 4.88845 | 96.04493 | 27364 ft | 476 kts | 291° |
| 2026-04-20 05:30 | 4.90020 | 96.01385 | 27485 ft | 476 kts | 291° |
| 2026-04-20 05:30 | 4.91192 | 95.98289 | 27597 ft | 477 kts | 291° |
| 2026-04-20 05:30 | 4.92372 | 95.95167 | 27734 ft | 477 kts | 291° |
| 2026-04-20 05:31 | 4.93550 | 95.92051 | 27811 ft | 479 kts | 291° |
| 2026-04-20 05:31 | 4.94734 | 95.88921 | 27888 ft | 481 kts | 291° |
| 2026-04-20 05:31 | 4.95919 | 95.85787 | 28011 ft | 481 kts | 291° |
| 2026-04-20 05:32 | 4.98296 | 95.79498 | 28197 ft | 483 kts | 291° |
| 2026-04-20 05:32 | 4.99487 | 95.76346 | 28344 ft | 483 kts | 291° |
| 2026-04-20 05:32 | 5.00682 | 95.73182 | 28439 ft | 484 kts | 291° |
| 2026-04-20 05:32 | 5.01860 | 95.70064 | 28594 ft | 484 kts | 291° |
| 2026-04-20 05:33 | 5.03057 | 95.66895 | 28630 ft | 487 kts | 291° |
| 2026-04-20 05:33 | 5.05465 | 95.60516 | 28782 ft | 490 kts | 291° |
| 2026-04-20 05:33 | 5.06673 | 95.57317 | 28905 ft | 490 kts | 291° |
| 2026-04-20 05:34 | 5.07880 | 95.54119 | 29034 ft | 490 kts | 291° |
| 2026-04-20 05:34 | 5.11497 | 95.44532 | 29358 ft | 492 kts | 291° |
| 2026-04-20 05:35 | 5.13930 | 95.38081 | 29495 ft | 494 kts | 291° |
| 2026-04-20 05:35 | 5.16361 | 95.31634 | 29651 ft | 496 kts | 291° |
| 2026-04-20 05:36 | 5.17580 | 95.28400 | 29753 ft | 497 kts | 291° |
| 2026-04-20 05:36 | 5.18806 | 95.25145 | 29834 ft | 497 kts | 291° |
| 2026-04-20 05:36 | 5.21256 | 95.18643 | 30019 ft | 498 kts | 291° |
| 2026-04-20 05:37 | 5.22478 | 95.15397 | 30141 ft | 497 kts | 291° |
| 2026-04-20 05:37 | 5.23703 | 95.12144 | 30271 ft | 496 kts | 291° |
| 2026-04-20 05:37 | 5.24922 | 95.08907 | 30400 ft | 496 kts | 291° |
| 2026-04-20 05:37 | 5.26139 | 95.05672 | 30521 ft | 495 kts | 291° |
| 2026-04-20 05:38 | 5.27357 | 95.02438 | 30647 ft | 494 kts | 291° |
| 2026-04-20 05:38 | 5.28556 | 94.99251 | 30768 ft | 494 kts | 291° |
| 2026-04-20 05:38 | 5.29771 | 94.96022 | 30896 ft | 493 kts | 291° |
| 2026-04-20 05:38 | 5.30982 | 94.92804 | 31048 ft | 492 kts | 290° |
| 2026-04-20 05:39 | 5.32190 | 94.89591 | 31179 ft | 492 kts | 291° |
| 2026-04-20 05:39 | 5.33397 | 94.86380 | 31301 ft | 491 kts | 291° |
| 2026-04-20 05:39 | 5.34603 | 94.83171 | 31429 ft | 491 kts | 291° |
| 2026-04-20 05:39 | 5.35808 | 94.79967 | 31572 ft | 491 kts | 291° |
| 2026-04-20 05:40 | 5.37017 | 94.76751 | 31733 ft | 490 kts | 291° |
| 2026-04-20 05:40 | 5.38203 | 94.73595 | 31888 ft | 489 kts | 291° |
| 2026-04-20 05:40 | 5.39402 | 94.70404 | 32062 ft | 489 kts | 291° |
| 2026-04-20 05:40 | 5.40603 | 94.67207 | 32229 ft | 488 kts | 291° |
| 2026-04-20 05:41 | 5.41802 | 94.64014 | 32386 ft | 488 kts | 291° |
| 2026-04-20 05:41 | 5.43001 | 94.60820 | 32569 ft | 488 kts | 290° |
| 2026-04-20 05:41 | 5.44195 | 94.57640 | 32750 ft | 487 kts | 290° |
| 2026-04-20 05:41 | 5.45396 | 94.54441 | 32907 ft | 487 kts | 290° |
| 2026-04-20 05:42 | 5.46589 | 94.51262 | 33088 ft | 487 kts | 290° |
| 2026-04-20 05:42 | 5.47774 | 94.48104 | 33245 ft | 487 kts | 290° |
| 2026-04-20 05:42 | 5.48968 | 94.44921 | 33430 ft | 486 kts | 290° |
| 2026-04-20 05:42 | 5.50159 | 94.41748 | 33607 ft | 486 kts | 290° |
| 2026-04-20 05:43 | 5.51349 | 94.38573 | 33798 ft | 485 kts | 290° |
| 2026-04-20 05:43 | 5.52537 | 94.35407 | 33977 ft | 484 kts | 290° |
| 2026-04-20 05:43 | 5.53722 | 94.32245 | 34140 ft | 484 kts | 290° |
| 2026-04-20 05:43 | 5.54910 | 94.29077 | 34318 ft | 483 kts | 290° |
| 2026-04-20 05:44 | 5.56076 | 94.25966 | 34468 ft | 483 kts | 290° |
| 2026-04-20 05:44 | 5.57258 | 94.22810 | 34613 ft | 482 kts | 290° |
| 2026-04-20 05:44 | 5.58441 | 94.19654 | 34771 ft | 482 kts | 290° |
| 2026-04-20 05:44 | 5.59621 | 94.16503 | 34924 ft | 481 kts | 290° |
| 2026-04-20 05:45 | 5.60798 | 94.13358 | 35115 ft | 480 kts | 291° |
| 2026-04-20 05:45 | 5.61971 | 94.10226 | 35312 ft | 478 kts | 290° |
| 2026-04-20 05:45 | 5.63142 | 94.07098 | 35498 ft | 477 kts | 290° |
| 2026-04-20 05:45 | 5.64309 | 94.03981 | 35666 ft | 476 kts | 290° |
| 2026-04-20 05:46 | 5.65472 | 94.00871 | 35833 ft | 475 kts | 290° |
| 2026-04-20 05:46 | 5.66634 | 93.97767 | 35888 ft | 476 kts | 291° |
| 2026-04-20 05:46 | 5.68960 | 93.91549 | 35893 ft | 475 kts | 290° |
| 2026-04-20 05:47 | 5.71279 | 93.85348 | 35895 ft | 474 kts | 290° |
| 2026-04-20 05:47 | 5.73580 | 93.79190 | 35894 ft | 474 kts | 290° |
| 2026-04-20 05:48 | 5.75903 | 93.72974 | 35895 ft | 476 kts | 290° |
| 2026-04-20 05:48 | 5.78228 | 93.66749 | 35895 ft | 476 kts | 290° |
| 2026-04-20 05:49 | 5.80554 | 93.60518 | 35895 ft | 476 kts | 290° |
| 2026-04-20 05:49 | 5.82485 | 93.55345 | 35895 ft | 476 kts | 290° |
| 2026-04-20 05:50 | 5.84810 | 93.49112 | 35892 ft | 476 kts | 290° |
| 2026-04-20 05:50 | 5.87131 | 93.42889 | 35892 ft | 476 kts | 290° |
| 2026-04-20 05:51 | 5.89455 | 93.36657 | 35895 ft | 476 kts | 290° |
| 2026-04-20 05:51 | 5.91776 | 93.30428 | 35895 ft | 476 kts | 290° |
| 2026-04-20 05:52 | 5.94082 | 93.24239 | 35897 ft | 476 kts | 290° |
| 2026-04-20 05:52 | 5.96400 | 93.18014 | 35894 ft | 476 kts | 290° |
| 2026-04-20 05:53 | 5.98721 | 93.11779 | 35891 ft | 476 kts | 290° |
| 2026-04-20 05:53 | 6.01150 | 93.05601 | 35892 ft | 476 kts | 294° |
| 2026-04-20 05:54 | 6.03901 | 92.99559 | 35895 ft | 475 kts | 295° |
| 2026-04-20 05:54 | 6.06712 | 92.93544 | 35895 ft | 475 kts | 295° |
| 2026-04-20 05:55 | 6.09496 | 92.87512 | 35893 ft | 475 kts | 294° |
| 2026-04-20 05:55 | 6.12254 | 92.81473 | 35892 ft | 476 kts | 294° |
| 2026-04-20 05:56 | 6.14992 | 92.75456 | 35895 ft | 476 kts | 294° |
| 2026-04-20 05:56 | 6.17745 | 92.69406 | 35895 ft | 476 kts | 294° |
| 2026-04-20 05:57 | 6.20498 | 92.63353 | 35897 ft | 478 kts | 294° |
| 2026-04-20 05:57 | 6.23275 | 92.57250 | 35891 ft | 481 kts | 294° |
| 2026-04-20 05:58 | 6.26056 | 92.51135 | 35892 ft | 481 kts | 294° |
| 2026-04-20 05:58 | 6.28822 | 92.45053 | 35892 ft | 481 kts | 294° |
| 2026-04-20 05:59 | 6.31603 | 92.38934 | 35892 ft | 481 kts | 294° |
| 2026-04-20 05:59 | 6.34380 | 92.32820 | 35891 ft | 481 kts | 294° |
| 2026-04-20 06:00 | 6.37159 | 92.26701 | 35895 ft | 481 kts | 294° |
| 2026-04-20 06:00 | 6.39942 | 92.20570 | 35893 ft | 481 kts | 294° |
| 2026-04-20 06:01 | 6.42705 | 92.14482 | 35892 ft | 481 kts | 294° |
| 2026-04-20 06:01 | 6.45486 | 92.08352 | 35892 ft | 481 kts | 294° |
| 2026-04-20 06:02 | 6.48259 | 92.02238 | 35891 ft | 479 kts | 294° |
| 2026-04-20 06:02 | 6.51022 | 91.96143 | 35892 ft | 478 kts | 294° |
| 2026-04-20 06:03 | 6.53784 | 91.90046 | 35891 ft | 478 kts | 294° |
| 2026-04-20 06:03 | 6.56530 | 91.83984 | 35892 ft | 480 kts | 294° |
| 2026-04-20 06:04 | 6.59301 | 91.77864 | 35892 ft | 480 kts | 294° |
| 2026-04-20 06:04 | 6.62073 | 91.71739 | 35892 ft | 480 kts | 294° |
| 2026-04-20 06:05 | 6.64840 | 91.65624 | 35892 ft | 480 kts | 294° |
| 2026-04-20 06:05 | 6.67591 | 91.59542 | 35892 ft | 480 kts | 294° |
| 2026-04-20 06:06 | 6.70364 | 91.53408 | 35892 ft | 480 kts | 294° |
| 2026-04-20 06:06 | 6.73131 | 91.47286 | 35892 ft | 481 kts | 294° |
| 2026-04-20 06:07 | 6.75903 | 91.41148 | 35892 ft | 481 kts | 294° |
| 2026-04-20 06:07 | 6.78671 | 91.35019 | 35892 ft | 481 kts | 294° |
| 2026-04-20 06:08 | 6.81426 | 91.28915 | 35892 ft | 481 kts | 294° |
| 2026-04-20 06:08 | 6.84200 | 91.22767 | 35892 ft | 481 kts | 294° |
| 2026-04-20 06:09 | 6.86967 | 91.16633 | 35889 ft | 481 kts | 294° |
| 2026-04-20 06:09 | 6.89719 | 91.10530 | 35889 ft | 481 kts | 294° |
| 2026-04-20 06:10 | 6.92488 | 91.04384 | 35889 ft | 481 kts | 294° |
| 2026-04-20 06:10 | 6.95256 | 90.98241 | 35889 ft | 481 kts | 294° |
| 2026-04-20 06:11 | 6.98007 | 90.92133 | 35889 ft | 481 kts | 294° |
| 2026-04-20 06:11 | 7.00777 | 90.85979 | 35892 ft | 481 kts | 294° |
| 2026-04-20 06:12 | 7.03540 | 90.79836 | 35889 ft | 481 kts | 294° |
| 2026-04-20 06:12 | 7.06302 | 90.73697 | 35892 ft | 481 kts | 294° |
| 2026-04-20 06:13 | 7.09063 | 90.67556 | 35892 ft | 481 kts | 294° |
| 2026-04-20 06:13 | 7.11808 | 90.61447 | 35892 ft | 481 kts | 294° |
| 2026-04-20 06:14 | 7.14566 | 90.55306 | 35892 ft | 481 kts | 294° |
| 2026-04-20 06:14 | 7.17324 | 90.49164 | 35892 ft | 481 kts | 294° |
| 2026-04-20 06:15 | 7.20085 | 90.43014 | 35892 ft | 481 kts | 294° |
| 2026-04-20 06:15 | 7.22842 | 90.36869 | 35893 ft | 481 kts | 293° |
| 2026-04-20 06:16 | 7.25587 | 90.30748 | 35889 ft | 479 kts | 293° |
| 2026-04-20 06:16 | 7.28314 | 90.24665 | 35889 ft | 478 kts | 293° |
| 2026-04-20 06:17 | 7.31051 | 90.18555 | 35889 ft | 478 kts | 293° |
| 2026-04-20 06:17 | 7.33788 | 90.12445 | 35889 ft | 478 kts | 293° |
| 2026-04-20 06:18 | 7.36522 | 90.06339 | 35889 ft | 478 kts | 293° |
| 2026-04-20 06:18 | 7.39258 | 90.00224 | 35889 ft | 478 kts | 293° |
| 2026-04-20 06:19 | 7.41973 | 89.94154 | 35886 ft | 477 kts | 293° |
| 2026-04-20 06:19 | 7.44703 | 89.88049 | 35887 ft | 477 kts | 293° |
| 2026-04-20 06:20 | 7.47429 | 89.81950 | 35889 ft | 477 kts | 293° |
| 2026-04-20 06:20 | 7.50148 | 89.75864 | 35889 ft | 477 kts | 293° |
| 2026-04-20 06:21 | 7.52872 | 89.69763 | 35889 ft | 477 kts | 293° |
| 2026-04-20 06:21 | 7.55595 | 89.63663 | 35892 ft | 477 kts | 293° |
| 2026-04-20 06:22 | 7.58321 | 89.57553 | 35889 ft | 477 kts | 293° |
| 2026-04-20 06:22 | 7.61041 | 89.51453 | 35888 ft | 477 kts | 293° |
| 2026-04-20 06:23 | 7.63760 | 89.45354 | 35892 ft | 476 kts | 293° |
| 2026-04-20 06:23 | 7.66459 | 89.39296 | 35892 ft | 476 kts | 293° |
| 2026-04-20 06:24 | 7.69177 | 89.33197 | 35889 ft | 477 kts | 293° |
| 2026-04-20 06:24 | 7.71934 | 89.27112 | 35889 ft | 477 kts | 293° |
| 2026-04-20 06:25 | 7.74714 | 89.21041 | 35889 ft | 476 kts | 293° |
| 2026-04-20 06:25 | 7.77486 | 89.14983 | 35889 ft | 475 kts | 293° |
| 2026-04-20 06:26 | 7.80235 | 89.08961 | 35892 ft | 475 kts | 293° |
| 2026-04-20 06:26 | 7.83000 | 89.02898 | 35892 ft | 475 kts | 293° |
| 2026-04-20 06:27 | 7.85761 | 88.96840 | 35889 ft | 475 kts | 293° |
| 2026-04-20 06:27 | 7.88522 | 88.90779 | 35889 ft | 475 kts | 293° |
| 2026-04-20 06:28 | 7.91260 | 88.84766 | 35891 ft | 475 kts | 293° |
| 2026-04-20 06:28 | 7.94031 | 88.78677 | 35892 ft | 477 kts | 293° |
| 2026-04-20 06:29 | 7.96804 | 88.72582 | 35892 ft | 478 kts | 293° |
| 2026-04-20 06:29 | 7.99578 | 88.66482 | 35892 ft | 478 kts | 293° |
| 2026-04-20 06:30 | 8.02330 | 88.60427 | 35895 ft | 478 kts | 293° |
| 2026-04-20 06:30 | 8.05097 | 88.54337 | 35895 ft | 477 kts | 293° |
| 2026-04-20 06:31 | 8.07865 | 88.48241 | 35892 ft | 478 kts | 293° |
| 2026-04-20 06:31 | 8.10636 | 88.42136 | 35892 ft | 478 kts | 293° |
| 2026-04-20 06:32 | 8.13412 | 88.36018 | 35892 ft | 479 kts | 293° |
| 2026-04-20 06:32 | 8.16168 | 88.29941 | 35892 ft | 479 kts | 293° |
| 2026-04-20 06:33 | 8.18938 | 88.23830 | 35892 ft | 479 kts | 293° |
| 2026-04-20 06:33 | 8.21713 | 88.17705 | 35895 ft | 479 kts | 293° |
| 2026-04-20 06:34 | 8.24486 | 88.11582 | 35895 ft | 479 kts | 293° |
| 2026-04-20 06:35 | 8.28626 | 88.02434 | 35893 ft | 479 kts | 293° |
| 2026-04-20 06:35 | 8.31394 | 87.96313 | 35890 ft | 479 kts | 292° |
| 2026-04-20 06:36 | 8.34160 | 87.90196 | 35893 ft | 479 kts | 292° |
| 2026-04-20 06:36 | 8.36467 | 87.85092 | 35895 ft | 479 kts | 292° |
| 2026-04-20 06:37 | 8.39239 | 87.78954 | 35895 ft | 480 kts | 292° |
| 2026-04-20 06:37 | 8.42008 | 87.72821 | 35895 ft | 480 kts | 292° |
| 2026-04-20 06:38 | 8.44773 | 87.66694 | 35894 ft | 479 kts | 292° |
| 2026-04-20 06:38 | 8.47511 | 87.60624 | 35892 ft | 478 kts | 292° |
| 2026-04-20 06:39 | 8.50270 | 87.54504 | 35895 ft | 478 kts | 292° |
| 2026-04-20 06:39 | 8.53027 | 87.48385 | 35893 ft | 478 kts | 292° |
| 2026-04-20 06:40 | 8.55782 | 87.42267 | 35890 ft | 478 kts | 292° |
| 2026-04-20 06:40 | 8.58523 | 87.36179 | 35894 ft | 478 kts | 292° |
| 2026-04-20 06:41 | 8.61274 | 87.30065 | 35891 ft | 478 kts | 292° |
| 2026-04-20 06:41 | 8.64023 | 87.23951 | 35889 ft | 477 kts | 292° |
| 2026-04-20 06:42 | 8.66768 | 87.17845 | 35893 ft | 477 kts | 292° |
| 2026-04-20 06:42 | 8.69519 | 87.11721 | 35892 ft | 477 kts | 292° |
| 2026-04-20 06:43 | 8.72247 | 87.05646 | 35893 ft | 478 kts | 292° |
| 2026-04-20 06:43 | 8.75003 | 86.99504 | 35889 ft | 478 kts | 292° |
| 2026-04-20 06:44 | 8.77751 | 86.93379 | 35896 ft | 478 kts | 292° |
| 2026-04-20 06:44 | 8.80486 | 86.87279 | 35895 ft | 479 kts | 292° |
| 2026-04-20 06:45 | 8.83234 | 86.81145 | 35894 ft | 479 kts | 292° |
| 2026-04-20 06:45 | 8.85991 | 86.74992 | 35890 ft | 479 kts | 292° |
| 2026-04-20 06:46 | 8.88745 | 86.68840 | 35892 ft | 479 kts | 292° |
| 2026-04-20 06:46 | 8.91478 | 86.62731 | 35892 ft | 479 kts | 292° |
| 2026-04-20 06:47 | 8.94232 | 86.56573 | 35888 ft | 479 kts | 292° |
| 2026-04-20 06:47 | 8.96971 | 86.50444 | 35891 ft | 477 kts | 292° |
| 2026-04-20 06:48 | 8.99700 | 86.44336 | 35890 ft | 476 kts | 292° |
| 2026-04-20 06:48 | 9.02415 | 86.38257 | 35890 ft | 476 kts | 292° |
| 2026-04-20 06:49 | 9.05141 | 86.32148 | 35888 ft | 476 kts | 292° |
| 2026-04-20 06:49 | 9.07867 | 86.26036 | 35885 ft | 476 kts | 292° |
| 2026-04-20 06:50 | 9.10598 | 86.19910 | 35887 ft | 477 kts | 292° |
| 2026-04-20 06:50 | 9.13326 | 86.13787 | 35889 ft | 476 kts | 292° |
| 2026-04-20 06:51 | 9.16043 | 86.07686 | 35890 ft | 475 kts | 292° |
| 2026-04-20 06:51 | 9.18760 | 86.01582 | 35893 ft | 475 kts | 292° |
| 2026-04-20 06:52 | 9.21454 | 85.95527 | 35883 ft | 475 kts | 292° |
| 2026-04-20 06:52 | 9.24164 | 85.89433 | 35881 ft | 475 kts | 292° |
| 2026-04-20 06:53 | 9.26916 | 85.83347 | 35886 ft | 475 kts | 294° |
| 2026-04-20 06:53 | 9.29733 | 85.77289 | 35884 ft | 475 kts | 294° |
| 2026-04-20 06:54 | 9.32538 | 85.71273 | 35887 ft | 475 kts | 294° |
| 2026-04-20 06:54 | 9.35351 | 85.65219 | 35884 ft | 475 kts | 294° |
| 2026-04-20 06:55 | 9.38160 | 85.59159 | 35881 ft | 475 kts | 294° |
| 2026-04-20 06:55 | 9.40968 | 85.53091 | 35881 ft | 475 kts | 294° |
| 2026-04-20 06:56 | 9.43771 | 85.47034 | 35882 ft | 475 kts | 293° |
| 2026-04-20 06:56 | 9.46568 | 85.40988 | 35887 ft | 473 kts | 293° |
| 2026-04-20 06:57 | 9.49362 | 85.34944 | 35885 ft | 474 kts | 293° |
| 2026-04-20 06:57 | 9.52140 | 85.28931 | 35885 ft | 474 kts | 293° |
| 2026-04-20 06:58 | 9.54935 | 85.22879 | 35879 ft | 474 kts | 293° |
| 2026-04-20 06:58 | 9.57729 | 85.16825 | 35885 ft | 474 kts | 293° |
| 2026-04-20 06:59 | 9.60520 | 85.10775 | 35886 ft | 474 kts | 293° |
| 2026-04-20 06:59 | 9.63300 | 85.04746 | 35883 ft | 474 kts | 293° |
| 2026-04-20 07:00 | 9.66096 | 84.98676 | 35877 ft | 476 kts | 293° |
| 2026-04-20 07:00 | 9.68903 | 84.92581 | 35881 ft | 476 kts | 293° |
| 2026-04-20 07:01 | 9.71696 | 84.86515 | 35878 ft | 476 kts | 293° |
| 2026-04-20 07:01 | 9.74502 | 84.80415 | 35879 ft | 476 kts | 293° |
| 2026-04-20 07:02 | 9.77307 | 84.74316 | 35876 ft | 476 kts | 293° |
| 2026-04-20 07:02 | 9.80090 | 84.68259 | 35880 ft | 476 kts | 293° |
| 2026-04-20 07:03 | 9.82883 | 84.62181 | 35879 ft | 476 kts | 292° |
| 2026-04-20 07:03 | 9.85681 | 84.56083 | 35878 ft | 477 kts | 292° |
| 2026-04-20 07:04 | 9.88486 | 84.49969 | 35879 ft | 477 kts | 292° |
| 2026-04-20 07:04 | 9.91264 | 84.43909 | 35878 ft | 477 kts | 292° |
| 2026-04-20 07:05 | 9.94060 | 84.37808 | 35878 ft | 477 kts | 292° |
| 2026-04-20 07:05 | 9.96857 | 84.31701 | 35878 ft | 477 kts | 292° |
| 2026-04-20 07:06 | 9.99654 | 84.25590 | 35879 ft | 476 kts | 292° |
| 2026-04-20 07:06 | 10.02424 | 84.19536 | 35879 ft | 476 kts | 292° |
| 2026-04-20 07:07 | 10.05214 | 84.13433 | 35877 ft | 476 kts | 292° |
| 2026-04-20 07:07 | 10.08005 | 84.07325 | 35876 ft | 476 kts | 292° |
| 2026-04-20 07:08 | 10.10769 | 84.01273 | 35872 ft | 476 kts | 292° |
| 2026-04-20 07:08 | 10.13550 | 83.95181 | 35872 ft | 476 kts | 292° |
| 2026-04-20 07:09 | 10.16331 | 83.89083 | 35872 ft | 475 kts | 292° |
| 2026-04-20 07:09 | 10.19099 | 83.83010 | 35873 ft | 473 kts | 292° |
| 2026-04-20 07:10 | 10.21867 | 83.76938 | 35872 ft | 473 kts | 292° |
| 2026-04-20 07:10 | 10.24629 | 83.70872 | 35872 ft | 473 kts | 292° |
| 2026-04-20 07:11 | 10.27390 | 83.64804 | 35874 ft | 473 kts | 292° |
| 2026-04-20 07:11 | 10.30152 | 83.58732 | 35872 ft | 473 kts | 292° |
| 2026-04-20 07:12 | 10.32892 | 83.52705 | 35871 ft | 473 kts | 292° |
| 2026-04-20 07:12 | 10.35657 | 83.46617 | 35873 ft | 475 kts | 292° |
| 2026-04-20 07:13 | 10.38426 | 83.40518 | 35874 ft | 475 kts | 292° |
| 2026-04-20 07:13 | 10.41195 | 83.34417 | 35872 ft | 475 kts | 292° |
| 2026-04-20 07:14 | 10.43963 | 83.28313 | 35875 ft | 475 kts | 292° |
| 2026-04-20 07:14 | 10.46711 | 83.22250 | 35873 ft | 475 kts | 292° |
| 2026-04-20 07:15 | 10.49480 | 83.16137 | 35871 ft | 475 kts | 292° |
| 2026-04-20 07:15 | 10.52225 | 83.10075 | 35872 ft | 474 kts | 292° |
| 2026-04-20 07:16 | 10.54978 | 83.03989 | 35870 ft | 473 kts | 292° |
| 2026-04-20 07:16 | 10.57735 | 82.97890 | 35870 ft | 473 kts | 292° |
| 2026-04-20 07:17 | 10.60466 | 82.91846 | 35872 ft | 473 kts | 292° |
| 2026-04-20 07:17 | 10.63216 | 82.85758 | 35870 ft | 473 kts | 292° |
| 2026-04-20 07:18 | 10.65972 | 82.79676 | 35868 ft | 473 kts | 292° |
| 2026-04-20 07:18 | 10.68718 | 82.73627 | 35867 ft | 473 kts | 292° |
| 2026-04-20 07:19 | 10.71469 | 82.67565 | 35867 ft | 472 kts | 292° |
| 2026-04-20 07:19 | 10.74222 | 82.61489 | 35868 ft | 472 kts | 292° |
| 2026-04-20 07:20 | 10.76970 | 82.55421 | 35867 ft | 472 kts | 292° |
| 2026-04-20 07:20 | 10.79720 | 82.49344 | 35864 ft | 472 kts | 292° |
| 2026-04-20 07:21 | 10.82446 | 82.43317 | 35864 ft | 472 kts | 292° |
| 2026-04-20 07:21 | 10.85192 | 82.37243 | 35866 ft | 472 kts | 291° |
| 2026-04-20 07:22 | 10.87926 | 82.31191 | 35864 ft | 469 kts | 291° |
| 2026-04-20 07:22 | 10.90649 | 82.25159 | 35865 ft | 468 kts | 291° |
| 2026-04-20 07:23 | 10.93368 | 82.19131 | 35865 ft | 469 kts | 291° |
| 2026-04-20 07:23 | 10.96088 | 82.13099 | 35864 ft | 469 kts | 291° |
| 2026-04-20 07:24 | 10.98805 | 82.07069 | 35864 ft | 469 kts | 291° |
| 2026-04-20 07:24 | 11.01506 | 82.01070 | 35865 ft | 469 kts | 291° |
| 2026-04-20 07:25 | 11.04223 | 81.95034 | 35864 ft | 469 kts | 291° |
| 2026-04-20 07:25 | 11.06478 | 81.90019 | 35864 ft | 468 kts | 291° |
| 2026-04-20 07:26 | 11.09189 | 81.83988 | 35866 ft | 468 kts | 291° |
| 2026-04-20 07:26 | 11.11901 | 81.77953 | 35862 ft | 469 kts | 291° |
| 2026-04-20 07:27 | 11.14610 | 81.71918 | 35863 ft | 469 kts | 291° |
| 2026-04-20 07:27 | 11.17319 | 81.65880 | 35862 ft | 468 kts | 291° |
| 2026-04-20 07:28 | 11.20026 | 81.59844 | 35867 ft | 468 kts | 291° |
| 2026-04-20 07:28 | 11.22730 | 81.53811 | 35862 ft | 467 kts | 291° |
| 2026-04-20 07:29 | 11.25425 | 81.47792 | 35862 ft | 467 kts | 291° |
| 2026-04-20 07:29 | 11.28120 | 81.41770 | 35863 ft | 467 kts | 291° |
| 2026-04-20 07:30 | 11.30813 | 81.35748 | 35859 ft | 467 kts | 291° |
| 2026-04-20 07:30 | 11.33506 | 81.29724 | 35861 ft | 467 kts | 291° |
| 2026-04-20 07:31 | 11.36182 | 81.23733 | 35861 ft | 467 kts | 291° |
| 2026-04-20 07:31 | 11.38869 | 81.17713 | 35859 ft | 467 kts | 291° |
| 2026-04-20 07:32 | 11.41561 | 81.11679 | 35856 ft | 467 kts | 291° |
| 2026-04-20 07:32 | 11.44252 | 81.05644 | 35857 ft | 467 kts | 291° |
| 2026-04-20 07:33 | 11.46926 | 80.99641 | 35861 ft | 467 kts | 291° |
| 2026-04-20 07:33 | 11.49597 | 80.93642 | 35856 ft | 467 kts | 291° |
| 2026-04-20 07:34 | 11.52278 | 80.87617 | 35856 ft | 467 kts | 291° |
| 2026-04-20 07:34 | 11.54964 | 80.81577 | 35854 ft | 467 kts | 291° |
| 2026-04-20 07:35 | 11.58976 | 80.72546 | 35858 ft | 467 kts | 291° |
| 2026-04-20 07:35 | 11.61657 | 80.66508 | 35857 ft | 467 kts | 291° |
| 2026-04-20 07:36 | 11.64331 | 80.60480 | 35850 ft | 467 kts | 291° |
| 2026-04-20 07:36 | 11.67010 | 80.54438 | 35852 ft | 467 kts | 291° |
| 2026-04-20 07:37 | 11.69681 | 80.48410 | 35853 ft | 466 kts | 291° |
| 2026-04-20 07:37 | 11.72355 | 80.42370 | 35854 ft | 466 kts | 291° |
| 2026-04-20 07:38 | 11.75006 | 80.36379 | 35852 ft | 466 kts | 290° |
| 2026-04-20 07:38 | 11.77673 | 80.30346 | 35852 ft | 466 kts | 290° |
| 2026-04-20 07:39 | 11.80336 | 80.24320 | 35853 ft | 466 kts | 290° |
| 2026-04-20 07:39 | 11.82998 | 80.18292 | 35853 ft | 466 kts | 290° |
| 2026-04-20 07:40 | 11.85661 | 80.12258 | 35850 ft | 465 kts | 290° |
| 2026-04-20 07:40 | 11.88290 | 80.06258 | 35846 ft | 465 kts | 290° |
| 2026-04-20 07:41 | 11.90919 | 80.00226 | 35848 ft | 464 kts | 290° |
| 2026-04-20 07:41 | 11.93545 | 79.94194 | 35849 ft | 464 kts | 290° |
| 2026-04-20 07:42 | 11.96168 | 79.88168 | 35858 ft | 464 kts | 290° |
| 2026-04-20 07:42 | 11.98793 | 79.82138 | 35857 ft | 464 kts | 290° |
| 2026-04-20 07:43 | 12.01419 | 79.76104 | 35854 ft | 464 kts | 290° |
| 2026-04-20 07:43 | 12.04039 | 79.70076 | 35858 ft | 464 kts | 290° |
| 2026-04-20 07:44 | 12.06642 | 79.64086 | 35856 ft | 464 kts | 290° |
| 2026-04-20 07:44 | 12.09280 | 79.58058 | 35852 ft | 465 kts | 290° |
| 2026-04-20 07:45 | 12.12005 | 79.52058 | 35848 ft | 465 kts | 291° |
| 2026-04-20 07:45 | 12.14753 | 79.46065 | 35851 ft | 465 kts | 291° |
| 2026-04-20 07:46 | 12.17477 | 79.40104 | 35849 ft | 465 kts | 291° |
| 2026-04-20 07:46 | 12.20205 | 79.34111 | 35851 ft | 465 kts | 291° |
| 2026-04-20 07:47 | 12.22928 | 79.28123 | 35849 ft | 464 kts | 291° |
| 2026-04-20 07:47 | 12.25634 | 79.22165 | 35850 ft | 464 kts | 291° |
| 2026-04-20 07:48 | 12.28351 | 79.16180 | 35839 ft | 464 kts | 291° |
| 2026-04-20 07:48 | 12.31067 | 79.10193 | 35861 ft | 464 kts | 291° |
| 2026-04-20 07:49 | 12.33781 | 79.04208 | 35847 ft | 464 kts | 291° |
| 2026-04-20 07:49 | 12.36477 | 78.98258 | 35863 ft | 463 kts | 291° |
| 2026-04-20 07:50 | 12.39186 | 78.92274 | 35860 ft | 463 kts | 291° |
| 2026-04-20 07:50 | 12.41894 | 78.86289 | 35854 ft | 463 kts | 291° |
| 2026-04-20 07:51 | 12.44598 | 78.80307 | 35869 ft | 463 kts | 290° |
| 2026-04-20 07:51 | 12.47299 | 78.74330 | 35859 ft | 463 kts | 291° |
| 2026-04-20 07:52 | 12.50003 | 78.68342 | 35871 ft | 463 kts | 290° |
| 2026-04-20 07:52 | 12.52706 | 78.62352 | 35869 ft | 463 kts | 291° |
| 2026-04-20 07:53 | 12.55409 | 78.56350 | 35880 ft | 464 kts | 290° |
| 2026-04-20 07:53 | 12.58097 | 78.50387 | 35882 ft | 464 kts | 290° |
| 2026-04-20 07:54 | 12.60802 | 78.44382 | 35889 ft | 464 kts | 290° |
| 2026-04-20 07:54 | 12.63499 | 78.38389 | 35889 ft | 463 kts | 290° |
| 2026-04-20 07:55 | 12.66203 | 78.32376 | 35905 ft | 464 kts | 290° |
| 2026-04-20 07:55 | 12.68898 | 78.26378 | 35904 ft | 463 kts | 290° |
| 2026-04-20 07:56 | 12.71566 | 78.20437 | 35922 ft | 460 kts | 290° |
| 2026-04-20 07:56 | 12.74240 | 78.14480 | 35921 ft | 459 kts | 290° |
| 2026-04-20 07:57 | 12.76904 | 78.08535 | 35925 ft | 459 kts | 290° |
| 2026-04-20 07:57 | 12.79558 | 78.02610 | 35940 ft | 459 kts | 290° |
| 2026-04-20 07:58 | 12.82224 | 77.96655 | 35937 ft | 459 kts | 290° |
| 2026-04-20 07:58 | 12.84891 | 77.90695 | 35951 ft | 459 kts | 290° |
| 2026-04-20 07:59 | 12.87532 | 77.84786 | 35951 ft | 459 kts | 290° |
| 2026-04-20 07:59 | 12.90190 | 77.78838 | 35990 ft | 459 kts | 290° |
| 2026-04-20 08:00 | 12.92846 | 77.72888 | 35992 ft | 459 kts | 290° |
| 2026-04-20 08:00 | 12.95550 | 77.66948 | 35993 ft | 460 kts | 292° |
| 2026-04-20 08:01 | 12.98564 | 77.61189 | 35994 ft | 462 kts | 294° |
| 2026-04-20 08:01 | 13.01716 | 77.55435 | 35992 ft | 461 kts | 294° |
| 2026-04-20 08:02 | 13.04842 | 77.49681 | 35987 ft | 461 kts | 294° |
| 2026-04-20 08:02 | 13.07915 | 77.43957 | 35981 ft | 461 kts | 294° |
| 2026-04-20 08:03 | 13.10993 | 77.38196 | 35977 ft | 460 kts | 294° |
| 2026-04-20 08:03 | 13.14070 | 77.32430 | 35971 ft | 460 kts | 294° |
| 2026-04-20 08:04 | 13.17148 | 77.26663 | 35974 ft | 460 kts | 294° |
| 2026-04-20 08:04 | 13.20229 | 77.20887 | 35975 ft | 460 kts | 293° |
| 2026-04-20 08:05 | 13.23294 | 77.15139 | 35963 ft | 458 kts | 293° |
| 2026-04-20 08:05 | 13.26333 | 77.09433 | 35963 ft | 458 kts | 293° |
| 2026-04-20 08:06 | 13.29388 | 77.03693 | 35960 ft | 458 kts | 293° |
| 2026-04-20 08:06 | 13.32445 | 76.97947 | 35962 ft | 458 kts | 293° |
| 2026-04-20 08:07 | 13.35500 | 76.92202 | 35948 ft | 458 kts | 293° |
| 2026-04-20 08:07 | 13.38554 | 76.86454 | 35951 ft | 458 kts | 293° |
| 2026-04-20 08:08 | 13.41608 | 76.80701 | 35950 ft | 458 kts | 293° |
| 2026-04-20 08:08 | 13.44645 | 76.74977 | 35943 ft | 458 kts | 293° |
| 2026-04-20 08:09 | 13.47689 | 76.69236 | 35942 ft | 458 kts | 293° |
| 2026-04-20 08:09 | 13.50741 | 76.63476 | 35942 ft | 458 kts | 293° |
| 2026-04-20 08:10 | 13.53782 | 76.57732 | 35939 ft | 457 kts | 293° |
| 2026-04-20 08:10 | 13.56801 | 76.52027 | 35939 ft | 457 kts | 293° |
| 2026-04-20 08:11 | 13.59839 | 76.46281 | 35934 ft | 457 kts | 292° |
| 2026-04-20 08:11 | 13.62877 | 76.40531 | 35933 ft | 457 kts | 292° |
| 2026-04-20 08:12 | 13.65895 | 76.34815 | 35928 ft | 457 kts | 292° |
| 2026-04-20 08:12 | 13.68924 | 76.29075 | 35934 ft | 457 kts | 292° |
| 2026-04-20 08:13 | 13.71443 | 76.24297 | 35930 ft | 457 kts | 292° |
| 2026-04-20 08:13 | 13.74478 | 76.18538 | 35928 ft | 457 kts | 292° |
| 2026-04-20 08:14 | 13.77514 | 76.12774 | 35927 ft | 457 kts | 292° |
| 2026-04-20 08:14 | 13.80518 | 76.07066 | 35925 ft | 456 kts | 292° |
| 2026-04-20 08:15 | 13.83538 | 76.01324 | 35916 ft | 456 kts | 292° |
| 2026-04-20 08:15 | 13.86558 | 75.95577 | 35917 ft | 456 kts | 292° |
| 2026-04-20 08:16 | 13.89569 | 75.89842 | 35905 ft | 456 kts | 292° |
| 2026-04-20 08:16 | 13.92569 | 75.84125 | 35915 ft | 456 kts | 292° |
| 2026-04-20 08:17 | 13.95581 | 75.78382 | 35907 ft | 456 kts | 292° |
| 2026-04-20 08:17 | 13.98592 | 75.72636 | 35894 ft | 455 kts | 292° |
| 2026-04-20 08:18 | 14.01599 | 75.66893 | 35895 ft | 455 kts | 292° |
| 2026-04-20 08:18 | 14.04584 | 75.61189 | 35898 ft | 455 kts | 292° |
| 2026-04-20 08:19 | 14.07586 | 75.55449 | 35900 ft | 455 kts | 292° |
| 2026-04-20 08:19 | 14.10580 | 75.49712 | 35883 ft | 455 kts | 292° |
| 2026-04-20 08:20 | 14.13573 | 75.43959 | 35888 ft | 455 kts | 291° |
| 2026-04-20 08:20 | 14.16563 | 75.38209 | 35888 ft | 454 kts | 291° |
| 2026-04-20 08:21 | 14.19527 | 75.32504 | 35884 ft | 454 kts | 291° |
| 2026-04-20 08:21 | 14.22503 | 75.26774 | 35885 ft | 454 kts | 291° |
| 2026-04-20 08:22 | 14.25480 | 75.21036 | 35881 ft | 453 kts | 291° |
| 2026-04-20 08:22 | 14.28456 | 75.15298 | 35881 ft | 453 kts | 291° |
| 2026-04-20 08:23 | 14.31413 | 75.09593 | 35880 ft | 453 kts | 291° |
| 2026-04-20 08:23 | 14.34384 | 75.03858 | 35877 ft | 454 kts | 291° |
| 2026-04-20 08:24 | 14.37358 | 74.98108 | 35879 ft | 454 kts | 291° |
| 2026-04-20 08:24 | 14.40340 | 74.92341 | 35879 ft | 454 kts | 291° |
| 2026-04-20 08:25 | 14.43290 | 74.86632 | 35877 ft | 454 kts | 291° |
| 2026-04-20 08:25 | 14.46259 | 74.80882 | 35873 ft | 454 kts | 291° |
| 2026-04-20 08:26 | 14.49235 | 74.75136 | 35871 ft | 454 kts | 291° |
| 2026-04-20 08:26 | 14.52261 | 74.69407 | 35870 ft | 455 kts | 292° |
| 2026-04-20 08:27 | 14.55301 | 74.63681 | 35865 ft | 455 kts | 292° |
| 2026-04-20 08:27 | 14.58333 | 74.57960 | 35865 ft | 454 kts | 292° |
| 2026-04-20 08:28 | 14.61343 | 74.52264 | 35864 ft | 454 kts | 292° |
| 2026-04-20 08:28 | 14.64386 | 74.46492 | 35860 ft | 455 kts | 292° |
| 2026-04-20 08:29 | 14.67396 | 74.40789 | 35857 ft | 455 kts | 292° |
| 2026-04-20 08:29 | 14.70428 | 74.35043 | 35851 ft | 454 kts | 291° |
| 2026-04-20 08:30 | 14.73454 | 74.29302 | 35845 ft | 454 kts | 291° |
| 2026-04-20 08:30 | 14.76452 | 74.23608 | 35846 ft | 454 kts | 291° |
| 2026-04-20 08:31 | 14.79471 | 74.17868 | 35838 ft | 454 kts | 291° |
| 2026-04-20 08:31 | 14.82489 | 74.12126 | 35844 ft | 454 kts | 291° |
| 2026-04-20 08:32 | 14.85486 | 74.06421 | 35832 ft | 454 kts | 291° |
| 2026-04-20 08:32 | 14.88497 | 74.00685 | 35831 ft | 454 kts | 291° |
| 2026-04-20 08:33 | 14.93017 | 73.92066 | 35831 ft | 454 kts | 291° |
| 2026-04-20 08:34 | 14.96034 | 73.86316 | 35831 ft | 455 kts | 291° |
| 2026-04-20 08:34 | 14.99047 | 73.80569 | 35832 ft | 454 kts | 291° |
| 2026-04-20 08:35 | 15.02059 | 73.74812 | 35830 ft | 454 kts | 291° |
| 2026-04-20 08:35 | 15.05044 | 73.69094 | 35829 ft | 454 kts | 291° |
| 2026-04-20 08:36 | 15.08049 | 73.63332 | 35832 ft | 454 kts | 291° |
| 2026-04-20 08:36 | 15.11047 | 73.57579 | 35826 ft | 454 kts | 291° |
| 2026-04-20 08:37 | 15.14048 | 73.51818 | 35827 ft | 454 kts | 291° |
| 2026-04-20 08:37 | 15.17042 | 73.46065 | 35820 ft | 454 kts | 291° |
| 2026-04-20 08:38 | 15.20043 | 73.40296 | 35819 ft | 454 kts | 291° |
| 2026-04-20 08:38 | 15.23035 | 73.34539 | 35826 ft | 454 kts | 291° |
| 2026-04-20 08:39 | 15.26009 | 73.28812 | 35826 ft | 454 kts | 291° |
| 2026-04-20 08:39 | 15.29000 | 73.23046 | 35832 ft | 454 kts | 291° |
| 2026-04-20 08:40 | 15.31994 | 73.17271 | 35833 ft | 455 kts | 291° |
| 2026-04-20 08:40 | 15.34987 | 73.11495 | 35837 ft | 455 kts | 291° |
| 2026-04-20 08:41 | 15.37957 | 73.05758 | 35829 ft | 454 kts | 291° |
| 2026-04-20 08:41 | 15.40942 | 72.99986 | 35829 ft | 454 kts | 291° |
| 2026-04-20 08:42 | 15.43916 | 72.94233 | 35841 ft | 454 kts | 290° |
| 2026-04-20 08:42 | 15.46899 | 72.88455 | 35831 ft | 454 kts | 290° |
| 2026-04-20 08:43 | 15.49882 | 72.82674 | 35831 ft | 454 kts | 290° |
| 2026-04-20 08:43 | 15.52869 | 72.76882 | 35834 ft | 454 kts | 290° |
| 2026-04-20 08:44 | 15.55849 | 72.71097 | 35831 ft | 454 kts | 290° |
| 2026-04-20 08:44 | 15.58807 | 72.65353 | 35834 ft | 454 kts | 290° |
| 2026-04-20 08:45 | 15.61786 | 72.59560 | 35844 ft | 454 kts | 290° |
| 2026-04-20 08:45 | 15.64761 | 72.53773 | 35835 ft | 454 kts | 290° |
| 2026-04-20 08:46 | 15.67735 | 72.47982 | 35837 ft | 454 kts | 290° |
| 2026-04-20 08:46 | 15.70688 | 72.42227 | 35834 ft | 454 kts | 290° |
| 2026-04-20 08:47 | 15.73660 | 72.36431 | 35833 ft | 454 kts | 290° |
| 2026-04-20 08:47 | 15.76625 | 72.30643 | 35834 ft | 454 kts | 290° |
| 2026-04-20 08:48 | 15.79593 | 72.24846 | 35844 ft | 454 kts | 290° |
| 2026-04-20 08:48 | 15.82555 | 72.19056 | 35835 ft | 453 kts | 290° |
| 2026-04-20 08:49 | 15.85511 | 72.13272 | 35835 ft | 453 kts | 290° |
| 2026-04-20 08:49 | 15.88450 | 72.07516 | 35837 ft | 453 kts | 290° |
| 2026-04-20 08:50 | 15.91404 | 72.01727 | 35838 ft | 453 kts | 290° |
| 2026-04-20 08:50 | 15.94361 | 71.95927 | 35841 ft | 453 kts | 290° |
| 2026-04-20 08:51 | 15.97305 | 71.90151 | 35847 ft | 452 kts | 290° |
| 2026-04-20 08:51 | 16.00246 | 71.84370 | 35848 ft | 452 kts | 290° |
| 2026-04-20 08:52 | 16.03183 | 71.78594 | 35832 ft | 452 kts | 290° |
| 2026-04-20 08:52 | 16.06120 | 71.72815 | 35848 ft | 452 kts | 290° |
| 2026-04-20 08:53 | 16.09040 | 71.67066 | 35835 ft | 452 kts | 290° |
| 2026-04-20 08:53 | 16.12005 | 71.61297 | 35851 ft | 453 kts | 291° |
| 2026-04-20 08:54 | 16.15026 | 71.55531 | 35850 ft | 453 kts | 291° |
| 2026-04-20 08:54 | 16.18048 | 71.49772 | 35846 ft | 452 kts | 291° |
| 2026-04-20 08:55 | 16.21058 | 71.44018 | 35857 ft | 452 kts | 291° |
| 2026-04-20 08:55 | 16.24039 | 71.38308 | 35845 ft | 451 kts | 291° |
| 2026-04-20 08:56 | 16.27032 | 71.32567 | 35846 ft | 451 kts | 291° |
| 2026-04-20 08:56 | 16.30025 | 71.26821 | 35845 ft | 451 kts | 291° |
| 2026-04-20 08:57 | 16.33017 | 71.21072 | 35844 ft | 451 kts | 291° |
| 2026-04-20 08:57 | 16.35987 | 71.15363 | 35846 ft | 451 kts | 291° |
| 2026-04-20 08:58 | 16.38992 | 71.09580 | 35848 ft | 451 kts | 291° |
| 2026-04-20 08:58 | 16.41958 | 71.03869 | 35847 ft | 451 kts | 291° |
| 2026-04-20 08:59 | 16.44947 | 70.98109 | 35851 ft | 451 kts | 291° |
| 2026-04-20 08:59 | 16.47930 | 70.92356 | 35851 ft | 451 kts | 291° |
| 2026-04-20 09:00 | 16.50911 | 70.86601 | 35855 ft | 450 kts | 291° |
| 2026-04-20 09:00 | 16.53873 | 70.80899 | 35851 ft | 449 kts | 291° |
| 2026-04-20 09:01 | 16.56870 | 70.75176 | 35849 ft | 449 kts | 292° |
| 2026-04-20 09:01 | 16.59867 | 70.69460 | 35851 ft | 449 kts | 292° |
| 2026-04-20 09:02 | 16.62359 | 70.64701 | 35851 ft | 449 kts | 292° |
| 2026-04-20 09:02 | 16.65353 | 70.58974 | 35850 ft | 449 kts | 292° |
| 2026-04-20 09:03 | 16.68344 | 70.53249 | 35860 ft | 449 kts | 292° |
| 2026-04-20 09:03 | 16.71334 | 70.47519 | 35853 ft | 449 kts | 292° |
| 2026-04-20 09:04 | 16.74325 | 70.41783 | 35855 ft | 450 kts | 292° |
| 2026-04-20 09:04 | 16.77310 | 70.36052 | 35857 ft | 450 kts | 292° |
| 2026-04-20 09:05 | 16.80300 | 70.30309 | 35858 ft | 449 kts | 292° |
| 2026-04-20 09:05 | 16.83262 | 70.24615 | 35854 ft | 449 kts | 292° |
| 2026-04-20 09:06 | 16.86241 | 70.18882 | 35855 ft | 449 kts | 292° |
| 2026-04-20 09:06 | 16.89221 | 70.13142 | 35849 ft | 449 kts | 292° |
| 2026-04-20 09:07 | 16.92203 | 70.07395 | 35856 ft | 449 kts | 292° |
| 2026-04-20 09:07 | 16.95178 | 70.01655 | 35854 ft | 449 kts | 292° |
| 2026-04-20 09:08 | 16.98135 | 69.95946 | 35855 ft | 449 kts | 292° |
| 2026-04-20 09:08 | 17.01116 | 69.90186 | 35854 ft | 449 kts | 292° |
| 2026-04-20 09:09 | 17.04086 | 69.84441 | 35845 ft | 449 kts | 293° |
| 2026-04-20 09:09 | 17.07043 | 69.78717 | 35854 ft | 451 kts | 294° |
| 2026-04-20 09:10 | 17.10021 | 69.72946 | 35853 ft | 451 kts | 294° |
| 2026-04-20 09:10 | 17.13007 | 69.67157 | 35854 ft | 451 kts | 294° |
| 2026-04-20 09:11 | 17.15982 | 69.61384 | 35859 ft | 451 kts | 294° |
| 2026-04-20 09:11 | 17.18939 | 69.55641 | 35859 ft | 451 kts | 294° |
| 2026-04-20 09:12 | 17.21925 | 69.49865 | 35859 ft | 451 kts | 294° |
| 2026-04-20 09:12 | 17.24921 | 69.44090 | 35859 ft | 451 kts | 294° |
| 2026-04-20 09:13 | 17.27910 | 69.38325 | 35864 ft | 451 kts | 294° |
| 2026-04-20 09:13 | 17.30900 | 69.32549 | 35862 ft | 451 kts | 294° |
| 2026-04-20 09:14 | 17.33883 | 69.26779 | 35861 ft | 451 kts | 294° |
| 2026-04-20 09:14 | 17.36850 | 69.21036 | 35864 ft | 451 kts | 294° |
| 2026-04-20 09:15 | 17.39835 | 69.15252 | 35861 ft | 451 kts | 295° |
| 2026-04-20 09:15 | 17.42815 | 69.09473 | 35862 ft | 451 kts | 295° |
| 2026-04-20 09:16 | 17.45796 | 69.03686 | 35860 ft | 451 kts | 295° |
| 2026-04-20 09:16 | 17.48760 | 68.97927 | 35859 ft | 451 kts | 295° |
| 2026-04-20 09:17 | 17.51743 | 68.92127 | 35856 ft | 451 kts | 295° |
| 2026-04-20 09:17 | 17.54723 | 68.86327 | 35863 ft | 451 kts | 295° |
| 2026-04-20 09:18 | 17.57679 | 68.80569 | 35857 ft | 451 kts | 295° |
| 2026-04-20 09:18 | 17.60651 | 68.74773 | 35859 ft | 451 kts | 295° |
| 2026-04-20 09:19 | 17.63621 | 68.68978 | 35861 ft | 451 kts | 295° |
| 2026-04-20 09:19 | 17.66593 | 68.63172 | 35864 ft | 451 kts | 295° |
| 2026-04-20 09:20 | 17.69537 | 68.57416 | 35868 ft | 451 kts | 295° |
| 2026-04-20 09:20 | 17.72498 | 68.51622 | 35864 ft | 451 kts | 295° |
| 2026-04-20 09:21 | 17.75465 | 68.45812 | 35864 ft | 450 kts | 295° |
| 2026-04-20 09:21 | 17.78402 | 68.40056 | 35866 ft | 450 kts | 295° |
| 2026-04-20 09:22 | 17.81356 | 68.34259 | 35860 ft | 450 kts | 295° |
| 2026-04-20 09:22 | 17.84304 | 68.28470 | 35865 ft | 450 kts | 295° |
| 2026-04-20 09:23 | 17.87250 | 68.22678 | 35864 ft | 449 kts | 295° |
| 2026-04-20 09:23 | 17.90188 | 68.16898 | 35863 ft | 448 kts | 296° |
| 2026-04-20 09:24 | 17.93118 | 68.11128 | 35863 ft | 447 kts | 296° |
| 2026-04-20 09:24 | 17.96029 | 68.05390 | 35862 ft | 447 kts | 296° |
| 2026-04-20 09:25 | 17.98955 | 67.99618 | 35865 ft | 447 kts | 296° |
| 2026-04-20 09:25 | 18.01878 | 67.93845 | 35862 ft | 447 kts | 296° |
| 2026-04-20 09:26 | 18.04786 | 67.88099 | 35865 ft | 447 kts | 296° |
| 2026-04-20 09:26 | 18.07708 | 67.82326 | 35865 ft | 447 kts | 296° |
| 2026-04-20 09:27 | 18.10696 | 67.76581 | 35862 ft | 448 kts | 297° |
| 2026-04-20 09:27 | 18.13714 | 67.70851 | 35867 ft | 447 kts | 297° |
| 2026-04-20 09:28 | 18.16727 | 67.65121 | 35868 ft | 447 kts | 297° |
| 2026-04-20 09:28 | 18.19729 | 67.59393 | 35864 ft | 447 kts | 297° |
| 2026-04-20 09:29 | 18.22709 | 67.53695 | 35861 ft | 447 kts | 297° |
| 2026-04-20 09:29 | 18.25705 | 67.47959 | 35862 ft | 447 kts | 297° |
| 2026-04-20 09:30 | 18.28705 | 67.42213 | 35867 ft | 448 kts | 297° |
| 2026-04-20 09:30 | 18.31701 | 67.36469 | 35861 ft | 448 kts | 297° |
| 2026-04-20 09:31 | 18.34699 | 67.30715 | 35862 ft | 448 kts | 297° |
| 2026-04-20 09:31 | 18.37695 | 67.24960 | 35867 ft | 448 kts | 297° |
| 2026-04-20 09:32 | 18.40672 | 67.19236 | 35861 ft | 448 kts | 298° |
| 2026-04-20 09:32 | 18.43659 | 67.13486 | 35862 ft | 447 kts | 298° |
| 2026-04-20 09:33 | 18.46649 | 67.07728 | 35862 ft | 447 kts | 298° |
| 2026-04-20 09:33 | 18.49620 | 67.02000 | 35862 ft | 447 kts | 298° |
| 2026-04-20 09:34 | 18.52606 | 66.96238 | 35862 ft | 447 kts | 298° |
| 2026-04-20 09:34 | 18.57077 | 66.87600 | 35861 ft | 447 kts | 298° |
| 2026-04-20 09:35 | 18.60059 | 66.81831 | 35862 ft | 447 kts | 298° |
| 2026-04-20 09:35 | 18.63016 | 66.76106 | 35865 ft | 447 kts | 298° |
| 2026-04-20 09:36 | 18.65989 | 66.70345 | 35862 ft | 447 kts | 298° |
| 2026-04-20 09:36 | 18.68959 | 66.64584 | 35862 ft | 447 kts | 298° |
| 2026-04-20 09:37 | 18.71933 | 66.58810 | 35862 ft | 447 kts | 298° |
| 2026-04-20 09:37 | 18.74883 | 66.53077 | 35862 ft | 447 kts | 298° |
| 2026-04-20 09:38 | 18.77852 | 66.47301 | 35862 ft | 447 kts | 298° |
| 2026-04-20 09:38 | 18.80815 | 66.41532 | 35862 ft | 447 kts | 298° |
| 2026-04-20 09:39 | 18.83779 | 66.35755 | 35862 ft | 447 kts | 298° |
| 2026-04-20 09:39 | 18.86743 | 66.29974 | 35862 ft | 447 kts | 298° |
| 2026-04-20 09:40 | 18.89709 | 66.24181 | 35858 ft | 447 kts | 298° |
| 2026-04-20 09:40 | 18.92656 | 66.18422 | 35862 ft | 448 kts | 298° |
| 2026-04-20 09:41 | 18.95619 | 66.12625 | 35862 ft | 448 kts | 298° |
| 2026-04-20 09:41 | 18.98559 | 66.06867 | 35862 ft | 448 kts | 298° |
| 2026-04-20 09:42 | 19.01513 | 66.01077 | 35862 ft | 448 kts | 298° |
| 2026-04-20 09:42 | 19.04472 | 65.95270 | 35862 ft | 448 kts | 298° |
| 2026-04-20 09:43 | 19.07425 | 65.89471 | 35861 ft | 448 kts | 298° |
| 2026-04-20 09:43 | 19.10376 | 65.83669 | 35862 ft | 448 kts | 298° |
| 2026-04-20 09:44 | 19.13310 | 65.77896 | 35863 ft | 447 kts | 298° |
| 2026-04-20 09:44 | 19.16262 | 65.72081 | 35862 ft | 447 kts | 298° |
| 2026-04-20 09:45 | 19.19207 | 65.66275 | 35862 ft | 447 kts | 298° |
| 2026-04-20 09:45 | 19.22147 | 65.60474 | 35859 ft | 447 kts | 298° |
| 2026-04-20 09:46 | 19.25068 | 65.54702 | 35865 ft | 448 kts | 298° |
| 2026-04-20 09:46 | 19.28012 | 65.48882 | 35867 ft | 448 kts | 298° |
| 2026-04-20 09:47 | 19.30951 | 65.43063 | 35864 ft | 448 kts | 298° |
| 2026-04-20 09:47 | 19.33887 | 65.37246 | 35864 ft | 448 kts | 298° |
| 2026-04-20 09:48 | 19.36823 | 65.31424 | 35868 ft | 448 kts | 298° |
| 2026-04-20 09:48 | 19.39758 | 65.25596 | 35865 ft | 448 kts | 298° |
| 2026-04-20 09:49 | 19.42196 | 65.20752 | 35867 ft | 448 kts | 298° |
| 2026-04-20 09:49 | 19.45615 | 65.13952 | 35867 ft | 448 kts | 298° |
| 2026-04-20 09:50 | 19.48051 | 65.09101 | 35867 ft | 448 kts | 298° |
| 2026-04-20 09:50 | 19.50980 | 65.03265 | 35867 ft | 448 kts | 298° |
| 2026-04-20 09:51 | 19.53927 | 64.97430 | 35868 ft | 448 kts | 298° |
| 2026-04-20 09:51 | 19.56922 | 64.91616 | 35867 ft | 449 kts | 298° |
| 2026-04-20 09:52 | 19.59905 | 64.85845 | 35867 ft | 449 kts | 298° |
| 2026-04-20 09:52 | 19.62900 | 64.80032 | 35867 ft | 449 kts | 298° |
| 2026-04-20 09:53 | 19.65888 | 64.74219 | 35867 ft | 449 kts | 298° |
| 2026-04-20 09:53 | 19.68894 | 64.68363 | 35867 ft | 449 kts | 298° |
| 2026-04-20 09:54 | 19.71859 | 64.62580 | 35865 ft | 449 kts | 298° |
| 2026-04-20 09:54 | 19.74843 | 64.56755 | 35867 ft | 449 kts | 298° |
| 2026-04-20 09:55 | 19.77828 | 64.50923 | 35865 ft | 449 kts | 298° |
| 2026-04-20 09:55 | 19.80813 | 64.45085 | 35864 ft | 449 kts | 298° |
| 2026-04-20 09:56 | 19.83776 | 64.39284 | 35868 ft | 449 kts | 298° |
| 2026-04-20 09:56 | 19.86758 | 64.33438 | 35864 ft | 449 kts | 299° |
| 2026-04-20 09:57 | 19.89739 | 64.27591 | 35864 ft | 450 kts | 298° |
| 2026-04-20 09:57 | 19.92720 | 64.21737 | 35865 ft | 450 kts | 298° |
| 2026-04-20 09:58 | 19.95678 | 64.15921 | 35865 ft | 450 kts | 298° |
| 2026-04-20 09:58 | 19.98650 | 64.10073 | 35865 ft | 450 kts | 298° |
| 2026-04-20 09:59 | 20.01621 | 64.04219 | 35860 ft | 450 kts | 299° |
| 2026-04-20 09:59 | 20.04600 | 63.98346 | 35865 ft | 451 kts | 299° |
| 2026-04-20 10:00 | 20.07575 | 63.92473 | 35867 ft | 451 kts | 299° |
| 2026-04-20 10:00 | 20.10535 | 63.86625 | 35868 ft | 451 kts | 299° |
| 2026-04-20 10:01 | 20.13504 | 63.80752 | 35868 ft | 451 kts | 299° |
| 2026-04-20 10:01 | 20.16478 | 63.74863 | 35867 ft | 451 kts | 298° |
| 2026-04-20 10:02 | 20.19449 | 63.68975 | 35867 ft | 451 kts | 299° |
| 2026-04-20 10:02 | 20.22400 | 63.63120 | 35865 ft | 451 kts | 299° |
| 2026-04-20 10:03 | 20.25364 | 63.57232 | 35865 ft | 451 kts | 299° |
| 2026-04-20 10:03 | 20.28328 | 63.51338 | 35865 ft | 451 kts | 299° |
| 2026-04-20 10:04 | 20.31290 | 63.45442 | 35865 ft | 451 kts | 299° |
| 2026-04-20 10:04 | 20.34249 | 63.39547 | 35864 ft | 451 kts | 299° |
| 2026-04-20 10:05 | 20.37205 | 63.33650 | 35865 ft | 450 kts | 299° |
| 2026-04-20 10:05 | 20.40152 | 63.27766 | 35865 ft | 450 kts | 299° |
| 2026-04-20 10:06 | 20.43100 | 63.21874 | 35864 ft | 450 kts | 299° |
| 2026-04-20 10:06 | 20.46046 | 63.15979 | 35865 ft | 450 kts | 299° |
| 2026-04-20 10:07 | 20.48972 | 63.10118 | 35863 ft | 450 kts | 299° |
| 2026-04-20 10:07 | 20.51911 | 63.04226 | 35869 ft | 449 kts | 299° |
| 2026-04-20 10:08 | 20.54846 | 62.98333 | 35864 ft | 449 kts | 299° |
| 2026-04-20 10:08 | 20.57776 | 62.92446 | 35864 ft | 449 kts | 299° |
| 2026-04-20 10:09 | 20.60704 | 62.86556 | 35864 ft | 449 kts | 299° |
| 2026-04-20 10:09 | 20.63629 | 62.80666 | 35862 ft | 449 kts | 299° |
| 2026-04-20 10:10 | 20.66529 | 62.74821 | 35864 ft | 448 kts | 299° |
| 2026-04-20 10:10 | 20.69458 | 62.68909 | 35864 ft | 447 kts | 299° |
| 2026-04-20 10:11 | 20.72352 | 62.63064 | 35864 ft | 447 kts | 299° |
| 2026-04-20 10:11 | 20.75262 | 62.57179 | 35867 ft | 447 kts | 299° |
| 2026-04-20 10:12 | 20.78151 | 62.51330 | 35858 ft | 447 kts | 300° |
| 2026-04-20 10:12 | 20.81049 | 62.45455 | 35862 ft | 446 kts | 300° |
| 2026-04-20 10:13 | 20.83942 | 62.39586 | 35859 ft | 446 kts | 300° |
| 2026-04-20 10:13 | 20.86837 | 62.33708 | 35859 ft | 446 kts | 300° |
| 2026-04-20 10:14 | 20.89729 | 62.27828 | 35859 ft | 446 kts | 300° |
| 2026-04-20 10:14 | 20.92613 | 62.21957 | 35849 ft | 446 kts | 300° |
| 2026-04-20 10:15 | 20.95491 | 62.16092 | 35862 ft | 444 kts | 300° |
| 2026-04-20 10:15 | 20.98345 | 62.10270 | 35865 ft | 445 kts | 300° |
| 2026-04-20 10:16 | 21.01219 | 62.04404 | 35851 ft | 445 kts | 300° |
| 2026-04-20 10:16 | 21.04098 | 61.98518 | 35852 ft | 445 kts | 300° |
| 2026-04-20 10:17 | 21.06972 | 61.92638 | 35849 ft | 445 kts | 300° |
| 2026-04-20 10:17 | 21.09823 | 61.86798 | 35854 ft | 444 kts | 300° |
| 2026-04-20 10:18 | 21.12674 | 61.80950 | 35853 ft | 443 kts | 300° |
| 2026-04-20 10:18 | 21.15527 | 61.75092 | 35852 ft | 443 kts | 300° |
| 2026-04-20 10:19 | 21.18375 | 61.69237 | 35858 ft | 443 kts | 300° |
| 2026-04-20 10:19 | 21.20513 | 61.63010 | 35856 ft | 449 kts | 284° |
| 2026-04-20 10:20 | 21.21130 | 61.56335 | 35856 ft | 454 kts | 276° |
| 2026-04-20 10:20 | 21.21330 | 61.49553 | 35854 ft | 455 kts | 275° |
| 2026-04-20 10:21 | 21.21463 | 61.42759 | 35853 ft | 455 kts | 275° |
| 2026-04-20 10:21 | 21.21618 | 61.35976 | 35849 ft | 455 kts | 275° |
| 2026-04-20 10:22 | 21.21793 | 61.29199 | 35852 ft | 454 kts | 275° |
| 2026-04-20 10:22 | 21.21971 | 61.22484 | 35846 ft | 452 kts | 275° |
| 2026-04-20 10:23 | 21.22147 | 61.15750 | 35851 ft | 452 kts | 275° |
| 2026-04-20 10:23 | 21.22320 | 61.08994 | 35851 ft | 452 kts | 275° |
| 2026-04-20 10:24 | 21.22490 | 61.02250 | 35844 ft | 452 kts | 275° |
| 2026-04-20 10:24 | 21.22655 | 60.95527 | 35845 ft | 450 kts | 275° |
| 2026-04-20 10:25 | 21.22817 | 60.88862 | 35849 ft | 450 kts | 275° |
| 2026-04-20 10:25 | 21.22978 | 60.82150 | 35845 ft | 450 kts | 275° |
| 2026-04-20 10:26 | 21.23136 | 60.75442 | 35850 ft | 450 kts | 275° |
| 2026-04-20 10:26 | 21.23291 | 60.68732 | 35847 ft | 449 kts | 275° |
| 2026-04-20 10:27 | 21.23442 | 60.62082 | 35845 ft | 449 kts | 275° |
| 2026-04-20 10:27 | 21.23592 | 60.55387 | 35845 ft | 449 kts | 275° |
| 2026-04-20 10:28 | 21.23739 | 60.48696 | 35846 ft | 449 kts | 275° |
| 2026-04-20 10:28 | 21.23884 | 60.41996 | 35845 ft | 450 kts | 276° |
| 2026-04-20 10:29 | 21.24027 | 60.35272 | 35845 ft | 451 kts | 276° |
| 2026-04-20 10:29 | 21.24166 | 60.28539 | 35842 ft | 451 kts | 276° |
| 2026-04-20 10:30 | 21.24302 | 60.21854 | 35842 ft | 451 kts | 276° |
| 2026-04-20 10:30 | 21.24435 | 60.15131 | 35846 ft | 451 kts | 276° |
| 2026-04-20 10:31 | 21.24566 | 60.08387 | 35836 ft | 452 kts | 276° |
| 2026-04-20 10:31 | 21.24692 | 60.01669 | 35834 ft | 453 kts | 276° |
| 2026-04-20 10:32 | 21.24816 | 59.94917 | 35849 ft | 453 kts | 276° |
| 2026-04-20 10:32 | 21.24938 | 59.88168 | 35832 ft | 453 kts | 276° |
| 2026-04-20 10:33 | 21.25057 | 59.81398 | 35832 ft | 454 kts | 276° |
| 2026-04-20 10:33 | 21.25173 | 59.74673 | 35841 ft | 454 kts | 276° |
| 2026-04-20 10:34 | 21.25287 | 59.67898 | 35833 ft | 454 kts | 276° |
| 2026-04-20 10:35 | 21.25453 | 59.57737 | 35828 ft | 454 kts | 276° |
| 2026-04-20 10:35 | 21.25559 | 59.51007 | 35826 ft | 453 kts | 276° |
| 2026-04-20 10:36 | 21.25664 | 59.44235 | 35837 ft | 453 kts | 276° |
| 2026-04-20 10:36 | 21.25765 | 59.37474 | 35835 ft | 453 kts | 275° |
| 2026-04-20 10:37 | 21.25864 | 59.30753 | 35823 ft | 453 kts | 275° |
| 2026-04-20 10:37 | 21.25959 | 59.24010 | 35828 ft | 451 kts | 275° |
| 2026-04-20 10:38 | 21.26037 | 59.18422 | 35829 ft | 450 kts | 275° |
| 2026-04-20 10:38 | 21.26128 | 59.11706 | 35834 ft | 450 kts | 275° |
| 2026-04-20 10:39 | 21.26217 | 59.04990 | 35831 ft | 451 kts | 275° |
| 2026-04-20 10:39 | 21.26300 | 58.98289 | 35828 ft | 444 kts | 276° |
| 2026-04-20 10:40 | 21.26377 | 58.91736 | 35833 ft | 439 kts | 276° |
| 2026-04-20 10:40 | 21.26458 | 58.85188 | 35833 ft | 439 kts | 276° |
| 2026-04-20 10:41 | 21.26536 | 58.78638 | 35831 ft | 439 kts | 276° |
| 2026-04-20 10:41 | 21.26608 | 58.72131 | 35835 ft | 439 kts | 276° |
| 2026-04-20 10:42 | 21.26676 | 58.65582 | 35834 ft | 439 kts | 276° |
| 2026-04-20 10:42 | 21.26741 | 58.59034 | 35835 ft | 439 kts | 276° |
| 2026-04-20 10:43 | 21.26803 | 58.52492 | 35835 ft | 439 kts | 276° |
| 2026-04-20 10:43 | 21.26864 | 58.45946 | 35825 ft | 438 kts | 276° |
| 2026-04-20 10:44 | 21.26920 | 58.39426 | 35833 ft | 436 kts | 276° |
| 2026-04-20 10:44 | 21.26975 | 58.32976 | 35833 ft | 435 kts | 276° |
| 2026-04-20 10:45 | 21.27028 | 58.26490 | 35831 ft | 435 kts | 276° |
| 2026-04-20 10:45 | 21.27079 | 58.19991 | 35825 ft | 435 kts | 276° |
| 2026-04-20 10:46 | 21.27126 | 58.13512 | 35828 ft | 434 kts | 276° |
| 2026-04-20 10:46 | 21.27170 | 58.07051 | 35835 ft | 433 kts | 276° |
| 2026-04-20 10:47 | 21.27212 | 58.00628 | 35832 ft | 433 kts | 276° |
| 2026-04-20 10:47 | 21.27253 | 57.94170 | 35832 ft | 433 kts | 276° |
| 2026-04-20 10:48 | 21.27289 | 57.87723 | 35832 ft | 431 kts | 276° |
| 2026-04-20 10:48 | 21.27323 | 57.81305 | 35840 ft | 429 kts | 276° |
| 2026-04-20 10:49 | 21.27356 | 57.74894 | 35841 ft | 429 kts | 276° |
| 2026-04-20 10:49 | 21.27387 | 57.68530 | 35837 ft | 430 kts | 276° |
| 2026-04-20 10:50 | 21.27414 | 57.62114 | 35833 ft | 429 kts | 276° |
| 2026-04-20 10:50 | 21.27438 | 57.55732 | 35845 ft | 427 kts | 276° |
| 2026-04-20 10:51 | 21.27460 | 57.49372 | 35831 ft | 426 kts | 276° |
| 2026-04-20 10:51 | 21.27481 | 57.43010 | 35836 ft | 427 kts | 276° |
| 2026-04-20 10:52 | 21.27499 | 57.36691 | 35833 ft | 426 kts | 276° |
| 2026-04-20 10:52 | 21.27514 | 57.30335 | 35829 ft | 425 kts | 276° |
| 2026-04-20 10:53 | 21.27526 | 57.23997 | 35827 ft | 424 kts | 276° |
| 2026-04-20 10:53 | 21.27537 | 57.17662 | 35828 ft | 425 kts | 276° |
| 2026-04-20 10:54 | 21.27546 | 57.11335 | 35829 ft | 425 kts | 276° |
| 2026-04-20 10:54 | 21.27551 | 57.05046 | 35823 ft | 423 kts | 276° |
| 2026-04-20 10:55 | 21.27554 | 56.98738 | 35826 ft | 422 kts | 276° |
| 2026-04-20 10:55 | 21.27555 | 56.92436 | 35824 ft | 422 kts | 276° |
| 2026-04-20 10:56 | 21.27552 | 56.86135 | 35823 ft | 422 kts | 276° |
| 2026-04-20 10:56 | 21.27545 | 56.79829 | 35817 ft | 422 kts | 276° |
| 2026-04-20 10:57 | 21.27535 | 56.73578 | 35827 ft | 421 kts | 276° |
| 2026-04-20 10:57 | 21.27524 | 56.67290 | 35820 ft | 421 kts | 276° |
| 2026-04-20 10:58 | 21.27511 | 56.60996 | 35814 ft | 421 kts | 276° |
| 2026-04-20 10:58 | 21.27495 | 56.54708 | 35821 ft | 421 kts | 276° |
| 2026-04-20 10:59 | 21.27477 | 56.48480 | 35810 ft | 420 kts | 276° |
| 2026-04-20 10:59 | 21.27456 | 56.42222 | 35815 ft | 419 kts | 276° |
| 2026-04-20 11:00 | 21.27434 | 56.35971 | 35805 ft | 419 kts | 276° |
| 2026-04-20 11:00 | 21.27410 | 56.29723 | 35809 ft | 419 kts | 276° |
| 2026-04-20 11:01 | 21.27384 | 56.23476 | 35812 ft | 417 kts | 276° |
| 2026-04-20 11:01 | 21.27358 | 56.17290 | 35813 ft | 417 kts | 276° |
| 2026-04-20 11:02 | 21.27325 | 56.11058 | 35813 ft | 417 kts | 276° |
| 2026-04-20 11:02 | 21.27287 | 56.04833 | 35800 ft | 417 kts | 276° |
| 2026-04-20 11:03 | 21.27247 | 55.98607 | 35804 ft | 417 kts | 276° |
| 2026-04-20 11:03 | 21.27206 | 55.92381 | 35806 ft | 417 kts | 276° |
| 2026-04-20 11:04 | 21.27162 | 55.86152 | 35801 ft | 417 kts | 276° |
| 2026-04-20 11:04 | 21.27115 | 55.79968 | 35802 ft | 417 kts | 276° |
| 2026-04-20 11:05 | 21.27065 | 55.73752 | 35794 ft | 416 kts | 275° |
| 2026-04-20 11:05 | 21.27012 | 55.67549 | 35791 ft | 415 kts | 275° |
| 2026-04-20 11:06 | 21.26959 | 55.61370 | 35796 ft | 415 kts | 275° |
| 2026-04-20 11:06 | 21.26904 | 55.55175 | 35800 ft | 415 kts | 275° |
| 2026-04-20 11:07 | 21.26846 | 55.48983 | 35795 ft | 414 kts | 275° |
| 2026-04-20 11:07 | 21.26788 | 55.42815 | 35794 ft | 413 kts | 276° |
| 2026-04-20 11:08 | 21.27001 | 55.36736 | 35788 ft | 410 kts | 279° |
| 2026-04-20 11:08 | 21.27401 | 55.30641 | 35786 ft | 409 kts | 279° |
| 2026-04-20 11:09 | 21.27804 | 55.24546 | 35780 ft | 410 kts | 279° |
| 2026-04-20 11:09 | 21.28175 | 55.18466 | 35780 ft | 408 kts | 279° |
| 2026-04-20 11:10 | 21.28530 | 55.12396 | 35778 ft | 407 kts | 279° |
| 2026-04-20 11:10 | 21.28880 | 55.06333 | 35779 ft | 407 kts | 279° |
| 2026-04-20 11:11 | 21.29227 | 55.00283 | 35772 ft | 408 kts | 279° |
| 2026-04-20 11:11 | 21.29573 | 54.94213 | 35771 ft | 407 kts | 279° |
| 2026-04-20 11:12 | 21.29917 | 54.88157 | 35769 ft | 407 kts | 279° |
| 2026-04-20 11:12 | 21.30258 | 54.82132 | 35768 ft | 407 kts | 279° |
| 2026-04-20 11:13 | 21.30598 | 54.76068 | 35771 ft | 407 kts | 279° |
| 2026-04-20 11:13 | 21.30937 | 54.69998 | 35771 ft | 407 kts | 279° |
| 2026-04-20 11:14 | 21.31272 | 54.63940 | 35770 ft | 406 kts | 279° |
| 2026-04-20 11:14 | 21.31603 | 54.57923 | 35768 ft | 406 kts | 279° |
| 2026-04-20 11:15 | 21.31936 | 54.51871 | 35771 ft | 406 kts | 279° |
| 2026-04-20 11:15 | 21.32268 | 54.45810 | 35771 ft | 406 kts | 279° |
| 2026-04-20 11:16 | 21.32596 | 54.39767 | 35773 ft | 405 kts | 278° |
| 2026-04-20 11:16 | 21.32921 | 54.33765 | 35769 ft | 405 kts | 278° |
| 2026-04-20 11:17 | 21.33244 | 54.27735 | 35769 ft | 405 kts | 278° |
| 2026-04-20 11:17 | 21.33564 | 54.21742 | 35766 ft | 404 kts | 278° |
| 2026-04-20 11:18 | 21.33882 | 54.15724 | 35767 ft | 404 kts | 278° |
| 2026-04-20 11:18 | 21.34199 | 54.09698 | 35767 ft | 404 kts | 278° |
| 2026-04-20 11:19 | 21.34513 | 54.03686 | 35769 ft | 404 kts | 278° |
| 2026-04-20 11:19 | 21.34825 | 53.97667 | 35767 ft | 404 kts | 278° |
| 2026-04-20 11:20 | 21.35131 | 53.91658 | 35769 ft | 403 kts | 278° |
| 2026-04-20 11:20 | 21.35436 | 53.85656 | 35767 ft | 402 kts | 278° |
| 2026-04-20 11:21 | 21.35736 | 53.79697 | 35768 ft | 403 kts | 278° |
| 2026-04-20 11:21 | 21.36038 | 53.73682 | 35765 ft | 403 kts | 278° |
| 2026-04-20 11:22 | 21.36334 | 53.67706 | 35765 ft | 403 kts | 278° |
| 2026-04-20 11:22 | 21.36630 | 53.61697 | 35766 ft | 402 kts | 278° |
| 2026-04-20 11:23 | 21.36924 | 53.55692 | 35771 ft | 402 kts | 278° |
| 2026-04-20 11:23 | 21.37214 | 53.49729 | 35771 ft | 402 kts | 278° |
| 2026-04-20 11:24 | 21.37502 | 53.43742 | 35764 ft | 401 kts | 278° |
| 2026-04-20 11:24 | 21.37789 | 53.37754 | 35764 ft | 401 kts | 278° |
| 2026-04-20 11:25 | 21.38074 | 53.31772 | 35763 ft | 401 kts | 278° |
| 2026-04-20 11:25 | 21.38309 | 53.26784 | 35761 ft | 401 kts | 278° |
| 2026-04-20 11:26 | 21.38589 | 53.20828 | 35762 ft | 401 kts | 277° |
| 2026-04-20 11:26 | 21.38867 | 53.14849 | 35761 ft | 401 kts | 277° |
| 2026-04-20 11:27 | 21.39143 | 53.08860 | 35761 ft | 401 kts | 277° |
| 2026-04-20 11:27 | 21.39417 | 53.02874 | 35764 ft | 401 kts | 277° |
| 2026-04-20 11:28 | 21.39689 | 52.96895 | 35761 ft | 401 kts | 277° |
| 2026-04-20 11:28 | 21.39959 | 52.90909 | 35760 ft | 402 kts | 277° |
| 2026-04-20 11:29 | 21.40227 | 52.84914 | 35761 ft | 402 kts | 277° |
| 2026-04-20 11:29 | 21.40493 | 52.78925 | 35760 ft | 401 kts | 277° |
| 2026-04-20 11:30 | 21.40755 | 52.72974 | 35761 ft | 401 kts | 277° |
| 2026-04-20 11:30 | 21.41016 | 52.66989 | 35762 ft | 401 kts | 277° |
| 2026-04-20 11:31 | 21.41276 | 52.61002 | 35763 ft | 401 kts | 277° |
| 2026-04-20 11:31 | 21.41530 | 52.55063 | 35761 ft | 400 kts | 277° |
| 2026-04-20 11:32 | 21.41782 | 52.49104 | 35759 ft | 400 kts | 277° |
| 2026-04-20 11:32 | 21.42033 | 52.43144 | 35760 ft | 400 kts | 277° |
| 2026-04-20 11:33 | 21.42282 | 52.37169 | 35762 ft | 400 kts | 277° |
| 2026-04-20 11:33 | 21.42528 | 52.31203 | 35760 ft | 400 kts | 277° |
| 2026-04-20 11:34 | 21.42773 | 52.25230 | 35760 ft | 400 kts | 277° |
| 2026-04-20 11:34 | 21.43014 | 52.19288 | 35760 ft | 400 kts | 277° |
| 2026-04-20 11:35 | 21.43254 | 52.13313 | 35759 ft | 400 kts | 277° |
| 2026-04-20 11:35 | 21.43492 | 52.07344 | 35761 ft | 400 kts | 277° |
| 2026-04-20 11:36 | 21.43728 | 52.01370 | 35757 ft | 400 kts | 276° |
| 2026-04-20 11:36 | 21.43962 | 51.95399 | 35756 ft | 400 kts | 276° |
| 2026-04-20 11:37 | 21.44193 | 51.89455 | 35759 ft | 401 kts | 276° |
| 2026-04-20 11:37 | 21.44537 | 51.80486 | 35754 ft | 401 kts | 276° |
| 2026-04-20 11:38 | 21.44764 | 51.74507 | 35760 ft | 400 kts | 276° |
| 2026-04-20 11:38 | 21.44986 | 51.68594 | 35758 ft | 398 kts | 276° |
| 2026-04-20 11:39 | 21.45208 | 51.62652 | 35759 ft | 398 kts | 276° |
| 2026-04-20 11:39 | 21.45429 | 51.56700 | 35749 ft | 398 kts | 276° |
| 2026-04-20 11:40 | 21.45647 | 51.50755 | 35757 ft | 399 kts | 276° |
| 2026-04-20 11:40 | 21.45863 | 51.44830 | 35757 ft | 399 kts | 276° |
| 2026-04-20 11:41 | 21.46077 | 51.38875 | 35757 ft | 399 kts | 276° |
| 2026-04-20 11:41 | 21.46290 | 51.32898 | 35754 ft | 399 kts | 276° |
| 2026-04-20 11:42 | 21.46498 | 51.26984 | 35760 ft | 399 kts | 276° |
| 2026-04-20 11:42 | 21.46706 | 51.21035 | 35764 ft | 399 kts | 276° |
| 2026-04-20 11:43 | 21.46912 | 51.15082 | 35762 ft | 399 kts | 276° |
| 2026-04-20 11:43 | 21.47116 | 51.09125 | 35758 ft | 399 kts | 276° |
| 2026-04-20 11:44 | 21.47318 | 51.03170 | 35759 ft | 399 kts | 276° |
| 2026-04-20 11:44 | 21.47518 | 50.97211 | 35759 ft | 399 kts | 276° |
| 2026-04-20 11:45 | 21.47714 | 50.91295 | 35763 ft | 399 kts | 276° |
| 2026-04-20 11:45 | 21.47908 | 50.85349 | 35760 ft | 398 kts | 276° |
| 2026-04-20 11:46 | 21.48101 | 50.79420 | 35757 ft | 398 kts | 276° |
| 2026-04-20 11:46 | 21.48291 | 50.73483 | 35755 ft | 398 kts | 276° |
| 2026-04-20 11:47 | 21.48480 | 50.67548 | 35760 ft | 398 kts | 276° |
| 2026-04-20 11:47 | 21.48667 | 50.61610 | 35759 ft | 398 kts | 276° |
| 2026-04-20 11:48 | 21.48851 | 50.55679 | 35757 ft | 397 kts | 275° |
| 2026-04-20 11:48 | 21.49032 | 50.49751 | 35757 ft | 397 kts | 275° |
| 2026-04-20 11:49 | 21.49211 | 50.43850 | 35757 ft | 397 kts | 275° |
| 2026-04-20 11:49 | 21.49389 | 50.37913 | 35758 ft | 397 kts | 275° |
| 2026-04-20 11:50 | 21.49565 | 50.31977 | 35755 ft | 397 kts | 275° |
| 2026-04-20 11:50 | 21.49739 | 50.26040 | 35758 ft | 397 kts | 275° |
| 2026-04-20 11:51 | 21.49910 | 50.20139 | 35753 ft | 397 kts | 275° |
| 2026-04-20 11:51 | 21.50080 | 50.14191 | 35756 ft | 397 kts | 275° |
| 2026-04-20 11:52 | 21.50304 | 50.08270 | 35757 ft | 395 kts | 278° |
| 2026-04-20 11:52 | 21.50892 | 50.02414 | 35753 ft | 393 kts | 279° |
| 2026-04-20 11:53 | 21.51546 | 49.96612 | 35742 ft | 393 kts | 279° |
| 2026-04-20 11:53 | 21.52216 | 49.90783 | 35749 ft | 394 kts | 279° |
| 2026-04-20 11:54 | 21.52881 | 49.84943 | 35749 ft | 394 kts | 279° |
| 2026-04-20 11:54 | 21.53540 | 49.79101 | 35749 ft | 394 kts | 279° |
| 2026-04-20 11:55 | 21.54195 | 49.73258 | 35747 ft | 394 kts | 279° |
| 2026-04-20 11:55 | 21.54849 | 49.67398 | 35747 ft | 394 kts | 279° |
| 2026-04-20 11:56 | 21.55501 | 49.61547 | 35750 ft | 394 kts | 279° |
| 2026-04-20 11:56 | 21.56151 | 49.55694 | 35747 ft | 394 kts | 279° |
| 2026-04-20 11:57 | 21.56795 | 49.49880 | 35744 ft | 394 kts | 279° |
| 2026-04-20 11:57 | 21.57440 | 49.44030 | 35744 ft | 393 kts | 279° |
| 2026-04-20 11:58 | 21.58080 | 49.38209 | 35748 ft | 392 kts | 279° |
| 2026-04-20 11:58 | 21.58719 | 49.32382 | 35746 ft | 392 kts | 279° |
| 2026-04-20 11:59 | 21.59353 | 49.26591 | 35744 ft | 392 kts | 279° |
| 2026-04-20 11:59 | 21.59986 | 49.20773 | 35740 ft | 392 kts | 279° |
| 2026-04-20 12:00 | 21.60616 | 49.14952 | 35741 ft | 392 kts | 279° |
| 2026-04-20 12:00 | 21.61247 | 49.09129 | 35742 ft | 392 kts | 279° |
| 2026-04-20 12:01 | 21.61872 | 49.03343 | 35737 ft | 393 kts | 279° |
| 2026-04-20 12:01 | 21.62501 | 48.97503 | 35737 ft | 393 kts | 279° |
| 2026-04-20 12:02 | 21.63128 | 48.91651 | 35738 ft | 393 kts | 279° |
| 2026-04-20 12:02 | 21.63752 | 48.85806 | 35752 ft | 393 kts | 278° |
| 2026-04-20 12:03 | 21.64370 | 48.79991 | 35734 ft | 392 kts | 278° |
| 2026-04-20 12:03 | 21.64988 | 48.74168 | 35735 ft | 392 kts | 278° |
| 2026-04-20 12:04 | 21.65604 | 48.68350 | 35733 ft | 392 kts | 278° |
| 2026-04-20 12:04 | 21.66220 | 48.62524 | 35729 ft | 392 kts | 278° |
| 2026-04-20 12:05 | 21.66832 | 48.56714 | 35732 ft | 394 kts | 278° |
| 2026-04-20 12:05 | 21.67448 | 48.50847 | 35734 ft | 394 kts | 278° |
| 2026-04-20 12:06 | 21.68060 | 48.44989 | 35730 ft | 394 kts | 278° |
| 2026-04-20 12:06 | 21.68671 | 48.39126 | 35730 ft | 394 kts | 279° |
| 2026-04-20 12:07 | 21.69275 | 48.33303 | 35730 ft | 394 kts | 279° |
| 2026-04-20 12:07 | 21.69881 | 48.27449 | 35730 ft | 394 kts | 279° |
| 2026-04-20 12:08 | 21.70485 | 48.21589 | 35731 ft | 393 kts | 278° |
| 2026-04-20 12:08 | 21.71084 | 48.15757 | 35729 ft | 392 kts | 278° |
| 2026-04-20 12:09 | 21.71682 | 48.09921 | 35725 ft | 392 kts | 278° |
| 2026-04-20 12:09 | 21.72272 | 48.04135 | 35725 ft | 392 kts | 278° |
| 2026-04-20 12:10 | 21.72866 | 47.98296 | 35726 ft | 392 kts | 278° |
| 2026-04-20 12:10 | 21.73457 | 47.92466 | 35728 ft | 392 kts | 278° |
| 2026-04-20 12:11 | 21.74042 | 47.86671 | 35728 ft | 392 kts | 278° |
| 2026-04-20 12:11 | 21.74629 | 47.80843 | 35728 ft | 392 kts | 278° |
| 2026-04-20 12:12 | 21.75214 | 47.75004 | 35727 ft | 392 kts | 278° |
| 2026-04-20 12:12 | 21.75797 | 47.69170 | 35727 ft | 392 kts | 278° |
| 2026-04-20 12:13 | 21.76373 | 47.63369 | 35722 ft | 392 kts | 278° |
| 2026-04-20 12:13 | 21.76853 | 47.58484 | 35722 ft | 392 kts | 278° |
| 2026-04-20 12:14 | 21.77517 | 47.51702 | 35730 ft | 392 kts | 278° |
| 2026-04-20 12:14 | 21.77995 | 47.46806 | 35724 ft | 392 kts | 278° |
| 2026-04-20 12:15 | 21.78560 | 47.40999 | 35726 ft | 392 kts | 278° |
| 2026-04-20 12:15 | 21.79127 | 47.35155 | 35730 ft | 392 kts | 278° |
| 2026-04-20 12:16 | 21.79691 | 47.29312 | 35732 ft | 393 kts | 278° |
| 2026-04-20 12:16 | 21.80251 | 47.23493 | 35730 ft | 393 kts | 278° |
| 2026-04-20 12:17 | 21.80812 | 47.17646 | 35727 ft | 393 kts | 278° |
| 2026-04-20 12:17 | 21.81370 | 47.11798 | 35733 ft | 392 kts | 278° |
| 2026-04-20 12:18 | 21.81928 | 47.05940 | 35736 ft | 392 kts | 278° |
| 2026-04-20 12:18 | 21.82477 | 47.00142 | 35732 ft | 391 kts | 278° |
| 2026-04-20 12:19 | 21.83026 | 46.94323 | 35735 ft | 391 kts | 278° |
| 2026-04-20 12:19 | 21.83575 | 46.88495 | 35737 ft | 391 kts | 278° |
| 2026-04-20 12:20 | 21.84122 | 46.82665 | 35733 ft | 391 kts | 278° |
| 2026-04-20 12:20 | 21.84663 | 46.76869 | 35738 ft | 391 kts | 278° |
| 2026-04-20 12:21 | 21.85206 | 46.71031 | 35739 ft | 391 kts | 278° |
| 2026-04-20 12:21 | 21.85746 | 46.65199 | 35737 ft | 391 kts | 278° |
| 2026-04-20 12:22 | 21.86281 | 46.59395 | 35734 ft | 391 kts | 278° |
| 2026-04-20 12:22 | 21.86817 | 46.53565 | 35741 ft | 391 kts | 278° |
| 2026-04-20 12:23 | 21.87351 | 46.47735 | 35741 ft | 391 kts | 278° |
| 2026-04-20 12:23 | 21.87883 | 46.41905 | 35738 ft | 394 kts | 278° |
| 2026-04-20 12:24 | 21.88427 | 46.35947 | 35730 ft | 405 kts | 277° |
| 2026-04-20 12:24 | 21.88977 | 46.29876 | 35736 ft | 415 kts | 277° |
| 2026-04-20 12:25 | 21.89538 | 46.23650 | 35746 ft | 418 kts | 277° |
| 2026-04-20 12:25 | 21.90094 | 46.17426 | 35742 ft | 417 kts | 277° |
| 2026-04-20 12:26 | 21.90649 | 46.11199 | 35744 ft | 417 kts | 277° |
| 2026-04-20 12:26 | 21.91200 | 46.05007 | 35739 ft | 417 kts | 277° |
| 2026-04-20 12:27 | 21.91751 | 45.98787 | 35740 ft | 417 kts | 277° |
| 2026-04-20 12:27 | 21.92301 | 45.92559 | 35745 ft | 417 kts | 277° |
| 2026-04-20 12:28 | 21.92847 | 45.86352 | 35737 ft | 416 kts | 277° |
| 2026-04-20 12:28 | 21.93392 | 45.80147 | 35737 ft | 415 kts | 277° |
| 2026-04-20 12:29 | 21.93931 | 45.73986 | 35734 ft | 416 kts | 277° |
| 2026-04-20 12:29 | 21.94473 | 45.67768 | 35725 ft | 416 kts | 277° |
| 2026-04-20 12:30 | 21.95011 | 45.61559 | 35728 ft | 416 kts | 277° |
| 2026-04-20 12:30 | 21.95547 | 45.55346 | 35730 ft | 416 kts | 277° |
| 2026-04-20 12:31 | 21.96080 | 45.49131 | 35724 ft | 417 kts | 277° |
| 2026-04-20 12:31 | 21.96610 | 45.42940 | 35724 ft | 417 kts | 277° |
| 2026-04-20 12:32 | 21.97140 | 45.36712 | 35722 ft | 416 kts | 277° |
| 2026-04-20 12:32 | 21.97666 | 45.30511 | 35722 ft | 415 kts | 277° |
| 2026-04-20 12:33 | 21.98188 | 45.24320 | 35723 ft | 414 kts | 277° |
| 2026-04-20 12:33 | 21.98705 | 45.18162 | 35719 ft | 414 kts | 277° |
| 2026-04-20 12:34 | 21.99223 | 45.11972 | 35723 ft | 414 kts | 277° |
| 2026-04-20 12:34 | 21.99738 | 45.05776 | 35726 ft | 414 kts | 277° |
| 2026-04-20 12:35 | 22.00251 | 44.99592 | 35730 ft | 414 kts | 276° |
| 2026-04-20 12:35 | 22.00761 | 44.93407 | 35725 ft | 414 kts | 276° |
| 2026-04-20 12:36 | 22.01266 | 44.87257 | 35728 ft | 414 kts | 276° |
| 2026-04-20 12:36 | 22.01771 | 44.81069 | 35728 ft | 414 kts | 276° |
| 2026-04-20 12:37 | 22.02274 | 44.74883 | 35731 ft | 414 kts | 276° |
| 2026-04-20 12:37 | 22.02772 | 44.68740 | 35732 ft | 414 kts | 276° |
| 2026-04-20 12:38 | 22.03269 | 44.62560 | 35730 ft | 414 kts | 276° |
| 2026-04-20 12:38 | 22.03766 | 44.56372 | 35733 ft | 414 kts | 276° |
| 2026-04-20 12:39 | 22.04507 | 44.47072 | 35736 ft | 415 kts | 276° |
| 2026-04-20 12:40 | 22.04999 | 44.40875 | 35736 ft | 415 kts | 276° |
| 2026-04-20 12:40 | 22.05490 | 44.34676 | 35742 ft | 416 kts | 276° |
| 2026-04-20 12:41 | 22.05980 | 44.28462 | 35750 ft | 417 kts | 276° |
| 2026-04-20 12:41 | 22.06469 | 44.22227 | 35749 ft | 417 kts | 276° |
| 2026-04-20 12:42 | 22.06952 | 44.16035 | 35749 ft | 417 kts | 276° |
| 2026-04-20 12:42 | 22.07437 | 44.09793 | 35754 ft | 417 kts | 276° |
| 2026-04-20 12:43 | 22.07918 | 44.03572 | 35754 ft | 416 kts | 276° |
| 2026-04-20 12:43 | 22.08394 | 43.97351 | 35763 ft | 416 kts | 276° |
| 2026-04-20 12:44 | 22.08863 | 43.91176 | 35761 ft | 416 kts | 276° |
| 2026-04-20 12:44 | 22.09333 | 43.84947 | 35772 ft | 416 kts | 276° |
| 2026-04-20 12:45 | 22.09801 | 43.78734 | 35773 ft | 416 kts | 275° |
| 2026-04-20 12:45 | 22.10266 | 43.72508 | 35780 ft | 416 kts | 275° |
| 2026-04-20 12:46 | 22.10729 | 43.66285 | 35786 ft | 416 kts | 275° |
| 2026-04-20 12:46 | 22.11190 | 43.60066 | 35779 ft | 416 kts | 275° |
| 2026-04-20 12:47 | 22.11644 | 43.53897 | 35791 ft | 415 kts | 275° |
| 2026-04-20 12:47 | 22.12099 | 43.47688 | 35803 ft | 415 kts | 275° |
| 2026-04-20 12:48 | 22.12553 | 43.41466 | 35807 ft | 416 kts | 275° |
| 2026-04-20 12:48 | 22.13005 | 43.35240 | 35801 ft | 415 kts | 275° |
| 2026-04-20 12:49 | 22.13449 | 43.29076 | 35809 ft | 415 kts | 275° |
| 2026-04-20 12:49 | 22.13894 | 43.22872 | 35815 ft | 415 kts | 275° |
| 2026-04-20 12:50 | 22.14337 | 43.16665 | 35823 ft | 415 kts | 275° |
| 2026-04-20 12:50 | 22.14777 | 43.10470 | 35831 ft | 414 kts | 275° |
| 2026-04-20 12:51 | 22.15215 | 43.04267 | 35824 ft | 414 kts | 275° |
| 2026-04-20 12:51 | 22.15650 | 42.98086 | 35832 ft | 415 kts | 275° |
| 2026-04-20 12:52 | 22.16085 | 42.91855 | 35834 ft | 416 kts | 275° |
| 2026-04-20 12:52 | 22.16517 | 42.85622 | 35842 ft | 416 kts | 275° |
| 2026-04-20 12:53 | 22.16948 | 42.79390 | 35841 ft | 416 kts | 275° |
| 2026-04-20 12:53 | 22.17376 | 42.73154 | 35848 ft | 416 kts | 275° |
| 2026-04-20 12:54 | 22.17799 | 42.66963 | 35850 ft | 416 kts | 275° |
| 2026-04-20 12:54 | 22.18223 | 42.60730 | 35863 ft | 416 kts | 274° |
| 2026-04-20 12:55 | 22.18644 | 42.54493 | 35863 ft | 416 kts | 274° |
| 2026-04-20 12:55 | 22.19063 | 42.48254 | 35872 ft | 417 kts | 274° |
| 2026-04-20 12:56 | 22.19481 | 42.41990 | 35883 ft | 419 kts | 274° |
| 2026-04-20 12:56 | 22.19896 | 42.35754 | 35891 ft | 419 kts | 274° |
| 2026-04-20 12:57 | 22.20310 | 42.29488 | 35890 ft | 418 kts | 274° |
| 2026-04-20 12:57 | 22.20721 | 42.23222 | 35897 ft | 418 kts | 274° |
| 2026-04-20 12:58 | 22.21130 | 42.16955 | 35908 ft | 418 kts | 274° |
| 2026-04-20 12:58 | 22.21532 | 42.10744 | 35914 ft | 416 kts | 274° |
| 2026-04-20 12:59 | 22.21935 | 42.04497 | 35914 ft | 416 kts | 274° |
| 2026-04-20 12:59 | 22.22335 | 41.98256 | 35927 ft | 416 kts | 274° |
| 2026-04-20 13:00 | 22.22732 | 41.92018 | 35924 ft | 416 kts | 274° |
| 2026-04-20 13:00 | 22.23126 | 41.85798 | 35930 ft | 415 kts | 274° |
| 2026-04-20 13:01 | 22.23517 | 41.79582 | 35929 ft | 415 kts | 274° |
| 2026-04-20 13:01 | 22.23904 | 41.73385 | 35933 ft | 416 kts | 274° |
| 2026-04-20 13:02 | 22.24292 | 41.67142 | 35938 ft | 416 kts | 274° |
| 2026-04-20 13:02 | 22.24675 | 41.60947 | 35938 ft | 416 kts | 274° |
| 2026-04-20 13:03 | 22.24995 | 41.55730 | 35950 ft | 416 kts | 274° |
| 2026-04-20 13:03 | 22.25437 | 41.48487 | 35949 ft | 415 kts | 274° |
| 2026-04-20 13:04 | 22.25753 | 41.43271 | 35952 ft | 415 kts | 274° |
| 2026-04-20 13:04 | 22.26126 | 41.37089 | 35952 ft | 415 kts | 274° |
| 2026-04-20 13:05 | 22.26500 | 41.30855 | 35952 ft | 415 kts | 274° |
| 2026-04-20 13:05 | 22.26665 | 41.24617 | 35952 ft | 415 kts | 271° |
| 2026-04-20 13:06 | 22.26671 | 41.18423 | 35950 ft | 415 kts | 270° |
| 2026-04-20 13:06 | 22.26678 | 41.12176 | 35965 ft | 415 kts | 270° |
| 2026-04-20 13:07 | 22.26685 | 41.05938 | 35952 ft | 414 kts | 270° |
| 2026-04-20 13:07 | 22.26692 | 40.99726 | 35952 ft | 413 kts | 270° |
| 2026-04-20 13:08 | 22.26696 | 40.93554 | 35950 ft | 414 kts | 270° |
| 2026-04-20 13:08 | 22.26698 | 40.87336 | 35955 ft | 414 kts | 270° |
| 2026-04-20 13:09 | 22.26697 | 40.81125 | 35961 ft | 413 kts | 270° |
| 2026-04-20 13:09 | 22.26695 | 40.74914 | 35963 ft | 413 kts | 270° |
| 2026-04-20 13:10 | 22.26690 | 40.68704 | 35942 ft | 413 kts | 270° |
| 2026-04-20 13:10 | 22.26682 | 40.62491 | 35966 ft | 414 kts | 270° |
| 2026-04-20 13:11 | 22.26673 | 40.56297 | 35974 ft | 414 kts | 270° |
| 2026-04-20 13:11 | 22.26660 | 40.50071 | 35976 ft | 414 kts | 270° |
| 2026-04-20 13:12 | 22.26646 | 40.43846 | 35983 ft | 413 kts | 270° |
| 2026-04-20 13:12 | 22.26629 | 40.37655 | 35991 ft | 412 kts | 270° |
| 2026-04-20 13:13 | 22.26610 | 40.31495 | 35995 ft | 412 kts | 270° |
| 2026-04-20 13:13 | 22.26589 | 40.25282 | 35978 ft | 412 kts | 270° |
| 2026-04-20 13:14 | 22.26565 | 40.19077 | 35972 ft | 414 kts | 270° |
| 2026-04-20 13:14 | 22.26539 | 40.12889 | 35975 ft | 414 kts | 270° |
| 2026-04-20 13:15 | 22.26510 | 40.06667 | 35955 ft | 414 kts | 270° |
| 2026-04-20 13:15 | 22.26286 | 40.03582 | 35763 ft | 413 kts | 261° |
| 2026-04-20 13:15 | 22.25397 | 40.00613 | 35501 ft | 420 kts | 248° |
| 2026-04-20 13:15 | 22.23918 | 39.97865 | 35262 ft | 427 kts | 242° |
| 2026-04-20 13:16 | 22.22282 | 39.95179 | 35024 ft | 429 kts | 241° |
| 2026-04-20 13:16 | 22.20644 | 39.92535 | 34778 ft | 429 kts | 241° |
| 2026-04-20 13:16 | 22.18991 | 39.89859 | 34544 ft | 429 kts | 242° |
| 2026-04-20 13:16 | 22.17337 | 39.87171 | 34117 ft | 430 kts | 241° |
| 2026-04-20 13:17 | 22.15676 | 39.84466 | 33290 ft | 433 kts | 241° |
| 2026-04-20 13:17 | 22.14015 | 39.81755 | 32615 ft | 434 kts | 241° |
| 2026-04-20 13:17 | 22.12342 | 39.79026 | 31928 ft | 437 kts | 241° |
| 2026-04-20 13:17 | 22.10664 | 39.76287 | 31259 ft | 439 kts | 241° |
| 2026-04-20 13:18 | 22.08968 | 39.73521 | 30716 ft | 442 kts | 241° |
| 2026-04-20 13:18 | 22.07263 | 39.70740 | 30157 ft | 446 kts | 240° |
| 2026-04-20 13:18 | 22.05541 | 39.67933 | 29500 ft | 449 kts | 240° |
| 2026-04-20 13:18 | 22.03831 | 39.65146 | 28491 ft | 453 kts | 240° |
| 2026-04-20 13:19 | 22.02129 | 39.62382 | 28541 ft | 435 kts | 240° |
| 2026-04-20 13:19 | 22.00466 | 39.59680 | 28189 ft | 425 kts | 240° |
| 2026-04-20 13:19 | 21.98857 | 39.57070 | 27678 ft | 412 kts | 240° |
| 2026-04-20 13:19 | 21.97290 | 39.54526 | 26536 ft | 405 kts | 240° |
| 2026-04-20 13:20 | 21.95739 | 39.52000 | 25266 ft | 403 kts | 239° |
| 2026-04-20 13:20 | 21.94266 | 39.49442 | 24121 ft | 400 kts | 244° |
| 2026-04-20 13:20 | 21.93008 | 39.46771 | 23295 ft | 400 kts | 246° |
| 2026-04-20 13:20 | 21.91806 | 39.44078 | 22655 ft | 397 kts | 246° |
| 2026-04-20 13:21 | 21.90618 | 39.41402 | 22046 ft | 393 kts | 246° |
| 2026-04-20 13:21 | 21.89445 | 39.38766 | 21192 ft | 385 kts | 245° |
| 2026-04-20 13:21 | 21.88309 | 39.36215 | 19991 ft | 382 kts | 245° |
| 2026-04-20 13:21 | 21.87160 | 39.33634 | 18819 ft | 382 kts | 245° |
| 2026-04-20 13:22 | 21.86007 | 39.31051 | 18061 ft | 383 kts | 245° |
| 2026-04-20 13:22 | 21.84859 | 39.28479 | 17450 ft | 379 kts | 244° |
| 2026-04-20 13:22 | 21.83724 | 39.25939 | 16967 ft | 374 kts | 244° |
| 2026-04-20 13:22 | 21.82592 | 39.23420 | 16798 ft | 372 kts | 243° |
| 2026-04-20 13:23 | 21.81228 | 39.21052 | 16768 ft | 374 kts | 233° |
| 2026-04-20 13:23 | 21.79572 | 39.18889 | 16732 ft | 374 kts | 230° |
| 2026-04-20 13:23 | 21.77863 | 39.16783 | 16123 ft | 374 kts | 230° |
| 2026-04-20 13:23 | 21.76146 | 39.14687 | 15517 ft | 372 kts | 229° |
| 2026-04-20 13:24 | 21.74458 | 39.12621 | 15012 ft | 360 kts | 229° |
| 2026-04-20 13:24 | 21.72842 | 39.10642 | 14416 ft | 345 kts | 229° |
| 2026-04-20 13:24 | 21.71279 | 39.08723 | 13523 ft | 339 kts | 229° |
| 2026-04-20 13:24 | 21.69707 | 39.06839 | 12505 ft | 337 kts | 225° |
| 2026-04-20 13:25 | 21.67889 | 39.05288 | 11592 ft | 332 kts | 211° |
| 2026-04-20 13:25 | 21.65789 | 39.04384 | 10715 ft | 329 kts | 194° |
| 2026-04-20 13:25 | 21.63530 | 39.04234 | 10162 ft | 323 kts | 177° |
| 2026-04-20 13:25 | 21.61374 | 39.04755 | 9985 ft | 314 kts | 166° |
| 2026-04-20 13:26 | 21.59352 | 39.05518 | 9831 ft | 303 kts | 164° |
| 2026-04-20 13:26 | 21.57408 | 39.06295 | 9687 ft | 292 kts | 163° |
| 2026-04-20 13:26 | 21.55527 | 39.07046 | 9426 ft | 286 kts | 164° |
| 2026-04-20 13:26 | 21.53674 | 39.07781 | 9103 ft | 281 kts | 164° |
| 2026-04-20 13:27 | 21.51853 | 39.08501 | 8598 ft | 276 kts | 163° |
| 2026-04-20 13:27 | 21.50062 | 39.09210 | 7952 ft | 273 kts | 163° |
| 2026-04-20 13:27 | 21.48308 | 39.09904 | 7344 ft | 270 kts | 162° |
| 2026-04-20 13:27 | 21.46555 | 39.10598 | 6764 ft | 266 kts | 162° |
| 2026-04-20 13:28 | 21.44829 | 39.11281 | 6208 ft | 262 kts | 161° |
| 2026-04-20 13:28 | 21.43126 | 39.11954 | 5597 ft | 259 kts | 161° |
| 2026-04-20 13:28 | 21.41438 | 39.12622 | 4964 ft | 258 kts | 161° |
| 2026-04-20 13:28 | 21.39790 | 39.13274 | 4644 ft | 244 kts | 161° |
| 2026-04-20 13:29 | 21.38263 | 39.13932 | 4417 ft | 230 kts | 151° |
| 2026-04-20 13:29 | 21.37165 | 39.15125 | 4166 ft | 226 kts | 120° |
| 2026-04-20 13:29 | 21.36873 | 39.16752 | 4070 ft | 225 kts | 89° |
| 2026-04-20 13:29 | 21.37444 | 39.18268 | 3964 ft | 225 kts | 55° |
| 2026-04-20 13:30 | 21.38690 | 39.19246 | 3781 ft | 224 kts | 24° |
| 2026-04-20 13:30 | 21.40181 | 39.19727 | 3513 ft | 222 kts | 14° |
| 2026-04-20 13:30 | 21.41684 | 39.20088 | 3179 ft | 221 kts | 14° |
| 2026-04-20 13:30 | 21.43201 | 39.20423 | 3018 ft | 224 kts | 13° |
| 2026-04-20 13:31 | 21.44729 | 39.20775 | 2997 ft | 225 kts | 13° |
| 2026-04-20 13:31 | 21.46260 | 39.21142 | 2995 ft | 225 kts | 14° |
| 2026-04-20 13:31 | 21.47801 | 39.21333 | 2988 ft | 226 kts | 358° |
| 2026-04-20 13:31 | 21.49338 | 39.21031 | 2983 ft | 223 kts | 340° |
| 2026-04-20 13:32 | 21.50785 | 39.20433 | 2994 ft | 224 kts | 337° |
| 2026-04-20 13:32 | 21.52227 | 39.19843 | 2965 ft | 216 kts | 338° |
| 2026-04-20 13:32 | 21.53610 | 39.19300 | 2736 ft | 208 kts | 337° |
| 2026-04-20 13:32 | 21.54959 | 39.18771 | 2453 ft | 203 kts | 338° |
| 2026-04-20 13:33 | 21.56260 | 39.18253 | 2179 ft | 196 kts | 338° |
| 2026-04-20 13:33 | 21.57511 | 39.17757 | 1916 ft | 186 kts | 335° |
| 2026-04-20 13:33 | 21.58691 | 39.17291 | 1689 ft | 174 kts | 336° |
| 2026-04-20 13:33 | 21.59794 | 39.16853 | 1469 ft | 164 kts | 333° |
| 2026-04-20 13:34 | 21.60830 | 39.16441 | 1265 ft | 153 kts | 336° |
| 2026-04-20 13:34 | 21.61799 | 39.16054 | 1087 ft | 146 kts | 338° |
| 2026-04-20 13:34 | 21.62734 | 39.15684 | 908 ft | 144 kts | 337° |
| 2026-04-20 13:34 | 21.63677 | 39.15310 | 740 ft | 144 kts | 338° |
| 2026-04-20 13:35 | 21.64625 | 39.14932 | 565 ft | 145 kts | 338° |
| 2026-04-20 13:35 | 21.65570 | 39.14559 | 367 ft | 144 kts | 334° |
| 2026-04-20 13:35 | 21.66505 | 39.14185 | 180 ft | 143 kts | 337° |
| 2026-04-20 13:35 | 21.67420 | 39.13820 | 39 ft | 129 kts | 341° |
| 2026-04-20 13:36 | 21.68080 | 39.13561 | 35 ft | 72 kts | 339° |
| 2026-04-20 13:36 | 21.68416 | 39.13426 | 33 ft | 44 kts | 340° |
| 2026-04-20 13:36 | 21.68686 | 39.13319 | 32 ft | 39 kts | 340° |
| 2026-04-20 13:36 | 21.68902 | 39.13229 | 31 ft | 25 kts | 340° |
| 2026-04-20 13:37 | 21.69068 | 39.13188 | 31 ft | 24 kts | 355° |
| 2026-04-20 13:37 | 21.69218 | 39.13200 | 29 ft | 14 kts | 9° |
| 2026-04-20 13:37 | 21.69299 | 39.13214 | 29 ft | 9 kts | 10° |
| 2026-04-20 13:37 | 21.69330 | 39.13220 | 29 ft | 2 kts | 10° |
| 2026-04-20 13:38 | 21.69352 | 39.13224 | 29 ft | 4 kts | 10° |
| 2026-04-20 13:38 | 21.69369 | 39.13227 | 29 ft | 3 kts | 8° |
| 2026-04-20 13:38 | 21.69374 | 39.13228 | 29 ft | 0 kts | 7° |
| 2026-04-20 13:39 | 21.69377 | 39.13229 | 29 ft | 0 kts | 14° |
| 2026-04-20 13:39 | 21.69378 | 39.13230 | 29 ft | 0 kts | 23° |
| 2026-04-20 13:39 | 21.69380 | 39.13234 | 29 ft | 1 kts | 45° |
| 2026-04-20 13:39 | 21.69379 | 39.13241 | 29 ft | 2 kts | 81° |
| 2026-04-20 13:40 | 21.69380 | 39.13262 | 29 ft | 4 kts | 90° |
| 2026-04-20 13:40 | 21.69377 | 39.13294 | 29 ft | 5 kts | 95° |
| 2026-04-20 13:40 | 21.69371 | 39.13336 | 29 ft | 6 kts | 106° |
| 2026-04-20 13:40 | 21.69339 | 39.13365 | 30 ft | 7 kts | 156° |
| 2026-04-20 13:41 | 21.69292 | 39.13385 | 30 ft | 8 kts | 159° |
| 2026-04-20 13:41 | 21.69236 | 39.13408 | 30 ft | 9 kts | 160° |
| 2026-04-20 13:41 | 21.69172 | 39.13433 | 30 ft | 10 kts | 160° |
| 2026-04-20 13:41 | 21.69099 | 39.13461 | 31 ft | 12 kts | 160° |
| 2026-04-20 13:42 | 21.69018 | 39.13494 | 31 ft | 13 kts | 160° |
| 2026-04-20 13:42 | 21.68832 | 39.13567 | 32 ft | 15 kts | 159° |
| 2026-04-20 13:42 | 21.68729 | 39.13608 | 32 ft | 16 kts | 160° |
| 2026-04-20 13:43 | 21.68617 | 39.13652 | 32 ft | 17 kts | 160° |
| 2026-04-20 13:43 | 21.68500 | 39.13698 | 33 ft | 18 kts | 160° |
| 2026-04-20 13:43 | 21.68378 | 39.13746 | 33 ft | 19 kts | 159° |
| 2026-04-20 13:43 | 21.68250 | 39.13797 | 34 ft | 20 kts | 160° |
| 2026-04-20 13:44 | 21.68117 | 39.13849 | 35 ft | 21 kts | 160° |
| 2026-04-20 13:44 | 21.67993 | 39.13898 | 36 ft | 14 kts | 160° |
| 2026-04-20 13:44 | 21.67912 | 39.13930 | 36 ft | 7 kts | 159° |
| 2026-04-20 13:44 | 21.67880 | 39.13965 | 36 ft | 7 kts | 109° |
| 2026-04-20 13:45 | 21.67885 | 39.14020 | 36 ft | 8 kts | 74° |
| 2026-04-20 13:45 | 21.67907 | 39.14086 | 36 ft | 10 kts | 70° |
| 2026-04-20 13:45 | 21.67935 | 39.14165 | 35 ft | 12 kts | 69° |
| 2026-04-20 13:45 | 21.67968 | 39.14259 | 35 ft | 14 kts | 69° |
| 2026-04-20 13:46 | 21.68004 | 39.14366 | 34 ft | 16 kts | 70° |
| 2026-04-20 13:46 | 21.68046 | 39.14485 | 33 ft | 18 kts | 70° |
| 2026-04-20 13:46 | 21.68091 | 39.14618 | 32 ft | 20 kts | 70° |
| 2026-04-20 13:46 | 21.68141 | 39.14763 | 32 ft | 21 kts | 69° |
| 2026-04-20 13:47 | 21.68180 | 39.14876 | 31 ft | 14 kts | 70° |
| 2026-04-20 13:47 | 21.68204 | 39.14947 | 31 ft | 7 kts | 70° |
| 2026-04-20 13:47 | 21.68190 | 39.14996 | 31 ft | 7 kts | 139° |
| 2026-04-20 13:47 | 21.68147 | 39.15015 | 31 ft | 7 kts | 160° |
| 2026-04-20 13:48 | 21.68095 | 39.15036 | 31 ft | 9 kts | 160° |
| 2026-04-20 13:48 | 21.68034 | 39.15059 | 31 ft | 10 kts | 160° |
| 2026-04-20 13:48 | 21.67966 | 39.15086 | 32 ft | 11 kts | 159° |
| 2026-04-20 13:48 | 21.67889 | 39.15117 | 32 ft | 12 kts | 160° |
| 2026-04-20 13:49 | 21.67819 | 39.15145 | 32 ft | 5 kts | 160° |
| 2026-04-20 13:49 | 21.67790 | 39.15146 | 32 ft | 3 kts | 198° |
| 2026-04-20 13:49 | 21.67781 | 39.15132 | 33 ft | 1 kts | 252° |
| 2026-04-20 13:49 | 21.67782 | 39.15123 | 33 ft | 1 kts | 274° |
| 2026-04-20 13:50 | 21.67784 | 39.15120 | 33 ft | 1 kts | 294° |
| 2026-04-20 13:50 | 21.67790 | 39.15108 | 33 ft | 3 kts | 295° |
| 2026-04-20 13:50 | 21.67795 | 39.15094 | 33 ft | 3 kts | 290° |
| 2026-04-20 13:50 | 21.67805 | 39.15065 | 33 ft | 3 kts | 290° |
| 2026-04-20 13:51 | 21.67808 | 39.15057 | 33 ft | 1 kts | 290° |
| 2026-04-20 13:51 | 21.67808 | 39.15056 | 33 ft | 0 kts | 290° |